<?xml version='1.0' encoding='UTF-8'?><gpx version="1.1" creator="JPX - https://github.com/jenetics/jpx" xmlns="http://www.topografix.com/GPX/1/1"><trk><trkseg><trkpt lat="44.8935578" lon="8.6732352"><ele>97.99999999999999</ele><time>2026-04-17T15:45:59.716Z</time></trkpt><trkpt lat="44.8936239" lon="8.673257"><ele>98.0</ele><time>2026-04-17T15:46:01.716Z</time></trkpt><trkpt lat="44.8936862" lon="8.6733093"><ele>98.0</ele><time>2026-04-17T15:46:04.716Z</time></trkpt><trkpt lat="44.8937026" lon="8.6734079"><ele>98.0</ele><time>2026-04-17T15:46:06.716Z</time></trkpt><trkpt lat="44.8936921" lon="8.6735994"><ele>97.99999999999999</ele><time>2026-04-17T15:46:08.716Z</time></trkpt><trkpt lat="44.8936744" lon="8.6737371"><ele>98.0</ele><time>2026-04-17T15:46:09.716Z</time></trkpt><trkpt lat="44.8936505" lon="8.6738678"><ele>96.75</ele><time>2026-04-17T15:46:10.716Z</time></trkpt><trkpt lat="44.8936156" lon="8.6741209"><ele>95.5</ele><time>2026-04-17T15:46:12.715Z</time></trkpt><trkpt lat="44.8935957" lon="8.6742645"><ele>94.25</ele><time>2026-04-17T15:46:13.716Z</time></trkpt><trkpt lat="44.8935675" lon="8.6744141"><ele>93.0</ele><time>2026-04-17T15:46:14.716Z</time></trkpt><trkpt lat="44.8935362" lon="8.6745494"><ele>93.0</ele><time>2026-04-17T15:46:15.716Z</time></trkpt><trkpt lat="44.8935102" lon="8.6746703"><ele>93.0</ele><time>2026-04-17T15:46:16.716Z</time></trkpt><trkpt lat="44.8933679" lon="8.6750283"><ele>93.0</ele><time>2026-04-17T15:46:20.715Z</time></trkpt><trkpt lat="44.8933057" lon="8.6750744"><ele>93.0</ele><time>2026-04-17T15:46:21.716Z</time></trkpt><trkpt lat="44.893241" lon="8.6750959"><ele>93.0</ele><time>2026-04-17T15:46:22.716Z</time></trkpt><trkpt lat="44.8931185" lon="8.6750464"><ele>93.0</ele><time>2026-04-17T15:46:24.716Z</time></trkpt><trkpt lat="44.8930524" lon="8.6749841"><ele>93.0</ele><time>2026-04-17T15:46:25.715Z</time></trkpt><trkpt lat="44.8929808" lon="8.6749021"><ele>93.0</ele><time>2026-04-17T15:46:26.716Z</time></trkpt><trkpt lat="44.8929011" lon="8.6748153"><ele>93.0</ele><time>2026-04-17T15:46:27.715Z</time></trkpt><trkpt lat="44.8928131" lon="8.6747286"><ele>93.0</ele><time>2026-04-17T15:46:28.716Z</time></trkpt><trkpt lat="44.8927237" lon="8.6746521"><ele>93.0</ele><time>2026-04-17T15:46:29.716Z</time></trkpt><trkpt lat="44.8926337" lon="8.6745833"><ele>93.0</ele><time>2026-04-17T15:46:30.716Z</time></trkpt><trkpt lat="44.8925349" lon="8.6745053"><ele>93.0</ele><time>2026-04-17T15:46:31.716Z</time></trkpt><trkpt lat="44.8922428" lon="8.6742289"><ele>93.0</ele><time>2026-04-17T15:46:34.715Z</time></trkpt><trkpt lat="44.8921571" lon="8.6741407"><ele>93.0</ele><time>2026-04-17T15:46:35.716Z</time></trkpt><trkpt lat="44.891988" lon="8.6739965"><ele>93.0</ele><time>2026-04-17T15:46:37.716Z</time></trkpt><trkpt lat="44.891911" lon="8.6739246"><ele>93.0</ele><time>2026-04-17T15:46:38.715Z</time></trkpt><trkpt lat="44.8918426" lon="8.67385"><ele>93.0</ele><time>2026-04-17T15:46:39.716Z</time></trkpt><trkpt lat="44.8917886" lon="8.6737776"><ele>93.0</ele><time>2026-04-17T15:46:40.716Z</time></trkpt><trkpt lat="44.8917569" lon="8.6737002"><ele>93.0</ele><time>2026-04-17T15:46:41.716Z</time></trkpt><trkpt lat="44.8917482" lon="8.6735268"><ele>93.0</ele><time>2026-04-17T15:46:43.715Z</time></trkpt><trkpt lat="44.8917565" lon="8.6734343"><ele>93.0</ele><time>2026-04-17T15:46:44.716Z</time></trkpt><trkpt lat="44.8917786" lon="8.6733395"><ele>93.0</ele><time>2026-04-17T15:46:45.716Z</time></trkpt><trkpt lat="44.8918135" lon="8.6732473"><ele>93.0</ele><time>2026-04-17T15:46:46.715Z</time></trkpt><trkpt lat="44.891913" lon="8.6731065"><ele>93.0</ele><time>2026-04-17T15:46:48.716Z</time></trkpt><trkpt lat="44.8919688" lon="8.6730536"><ele>93.0</ele><time>2026-04-17T15:46:49.716Z</time></trkpt><trkpt lat="44.8920271" lon="8.6730026"><ele>93.0</ele><time>2026-04-17T15:46:50.716Z</time></trkpt><trkpt lat="44.8921282" lon="8.672909"><ele>93.0</ele><time>2026-04-17T15:46:52.716Z</time></trkpt><trkpt lat="44.8922166" lon="8.6728144"><ele>93.0</ele><time>2026-04-17T15:46:54.715Z</time></trkpt><trkpt lat="44.8922998" lon="8.6727498"><ele>93.0</ele><time>2026-04-17T15:46:56.716Z</time></trkpt><trkpt lat="44.8923584" lon="8.6727017"><ele>93.0</ele><time>2026-04-17T15:46:58.716Z</time></trkpt><trkpt lat="44.892296" lon="8.6726543"><ele>93.0</ele><time>2026-04-17T15:47:08.716Z</time></trkpt><trkpt lat="44.8922496" lon="8.6727157"><ele>93.0</ele><time>2026-04-17T15:47:09.716Z</time></trkpt><trkpt lat="44.8921925" lon="8.6727993"><ele>93.0</ele><time>2026-04-17T15:47:10.716Z</time></trkpt><trkpt lat="44.8921344" lon="8.6728799"><ele>93.0</ele><time>2026-04-17T15:47:11.716Z</time></trkpt><trkpt lat="44.8920698" lon="8.6729597"><ele>93.0</ele><time>2026-04-17T15:47:12.716Z</time></trkpt><trkpt lat="44.8919956" lon="8.6730417"><ele>93.0</ele><time>2026-04-17T15:47:13.716Z</time></trkpt><trkpt lat="44.8919225" lon="8.673113"><ele>93.0</ele><time>2026-04-17T15:47:14.716Z</time></trkpt><trkpt lat="44.8918564" lon="8.6731734"><ele>93.0</ele><time>2026-04-17T15:47:15.716Z</time></trkpt><trkpt lat="44.8917847" lon="8.6732187"><ele>93.0</ele><time>2026-04-17T15:47:16.716Z</time></trkpt><trkpt lat="44.8917024" lon="8.6732449"><ele>92.66666666666667</ele><time>2026-04-17T15:47:17.716Z</time></trkpt><trkpt lat="44.8916154" lon="8.6732576"><ele>92.33333333333333</ele><time>2026-04-17T15:47:18.715Z</time></trkpt><trkpt lat="44.8915231" lon="8.6732707"><ele>92.0</ele><time>2026-04-17T15:47:19.716Z</time></trkpt><trkpt lat="44.8914383" lon="8.673297"><ele>91.66666666666666</ele><time>2026-04-17T15:47:20.716Z</time></trkpt><trkpt lat="44.8913733" lon="8.6733214"><ele>91.33333333333333</ele><time>2026-04-17T15:47:21.716Z</time></trkpt><trkpt lat="44.8913197" lon="8.6733707"><ele>91.0</ele><time>2026-04-17T15:47:22.715Z</time></trkpt><trkpt lat="44.8912471" lon="8.6735135"><ele>91.19999999999999</ele><time>2026-04-17T15:47:24.716Z</time></trkpt><trkpt lat="44.8912243" lon="8.6736191"><ele>91.39999999999999</ele><time>2026-04-17T15:47:25.715Z</time></trkpt><trkpt lat="44.8911953" lon="8.6737513"><ele>91.6</ele><time>2026-04-17T15:47:26.716Z</time></trkpt><trkpt lat="44.8911393" lon="8.6738924"><ele>91.8</ele><time>2026-04-17T15:47:27.716Z</time></trkpt><trkpt lat="44.8910611" lon="8.6740306"><ele>92.0</ele><time>2026-04-17T15:47:28.716Z</time></trkpt><trkpt lat="44.8909677" lon="8.6741493"><ele>92.25</ele><time>2026-04-17T15:47:29.716Z</time></trkpt><trkpt lat="44.8908627" lon="8.6742682"><ele>92.5</ele><time>2026-04-17T15:47:30.715Z</time></trkpt><trkpt lat="44.8907657" lon="8.6743871"><ele>92.75</ele><time>2026-04-17T15:47:31.716Z</time></trkpt><trkpt lat="44.8906639" lon="8.6745058"><ele>93.0</ele><time>2026-04-17T15:47:32.716Z</time></trkpt><trkpt lat="44.8905617" lon="8.6746218"><ele>93.0</ele><time>2026-04-17T15:47:33.716Z</time></trkpt><trkpt lat="44.8904492" lon="8.67475"><ele>93.0</ele><time>2026-04-17T15:47:34.716Z</time></trkpt><trkpt lat="44.8903324" lon="8.6748806"><ele>93.0</ele><time>2026-04-17T15:47:35.716Z</time></trkpt><trkpt lat="44.8902205" lon="8.6750142"><ele>93.0</ele><time>2026-04-17T15:47:36.716Z</time></trkpt><trkpt lat="44.8901077" lon="8.6751437"><ele>93.25</ele><time>2026-04-17T15:47:37.716Z</time></trkpt><trkpt lat="44.8900008" lon="8.6752737"><ele>93.5</ele><time>2026-04-17T15:47:38.715Z</time></trkpt><trkpt lat="44.8898881" lon="8.6753992"><ele>93.75</ele><time>2026-04-17T15:47:39.716Z</time></trkpt><trkpt lat="44.8897778" lon="8.6755263"><ele>94.0</ele><time>2026-04-17T15:47:40.715Z</time></trkpt><trkpt lat="44.8896664" lon="8.67566"><ele>94.0</ele><time>2026-04-17T15:47:41.716Z</time></trkpt><trkpt lat="44.8895585" lon="8.6757901"><ele>94.0</ele><time>2026-04-17T15:47:42.716Z</time></trkpt><trkpt lat="44.8894525" lon="8.6759174"><ele>94.0</ele><time>2026-04-17T15:47:43.715Z</time></trkpt><trkpt lat="44.8893505" lon="8.6760356"><ele>94.0</ele><time>2026-04-17T15:47:44.716Z</time></trkpt><trkpt lat="44.8892474" lon="8.6761442"><ele>94.5</ele><time>2026-04-17T15:47:45.716Z</time></trkpt><trkpt lat="44.889147" lon="8.6762491"><ele>95.0</ele><time>2026-04-17T15:47:46.716Z</time></trkpt><trkpt lat="44.8890484" lon="8.6763511"><ele>95.5</ele><time>2026-04-17T15:47:47.716Z</time></trkpt><trkpt lat="44.8889528" lon="8.6764537"><ele>96.0</ele><time>2026-04-17T15:47:48.716Z</time></trkpt><trkpt lat="44.8888594" lon="8.6765594"><ele>96.0</ele><time>2026-04-17T15:47:49.716Z</time></trkpt><trkpt lat="44.8887571" lon="8.6766708"><ele>96.0</ele><time>2026-04-17T15:47:50.715Z</time></trkpt><trkpt lat="44.8886528" lon="8.6767785"><ele>96.0</ele><time>2026-04-17T15:47:51.716Z</time></trkpt><trkpt lat="44.8885532" lon="8.6768842"><ele>96.0</ele><time>2026-04-17T15:47:52.715Z</time></trkpt><trkpt lat="44.8884576" lon="8.676992"><ele>96.0</ele><time>2026-04-17T15:47:53.716Z</time></trkpt><trkpt lat="44.8883558" lon="8.6771076"><ele>96.0</ele><time>2026-04-17T15:47:54.716Z</time></trkpt><trkpt lat="44.8882555" lon="8.6772331"><ele>96.0</ele><time>2026-04-17T15:47:55.716Z</time></trkpt><trkpt lat="44.8881553" lon="8.6773423"><ele>96.0</ele><time>2026-04-17T15:47:56.716Z</time></trkpt><trkpt lat="44.8880612" lon="8.6774449"><ele>96.0</ele><time>2026-04-17T15:47:57.716Z</time></trkpt><trkpt lat="44.88797" lon="8.6775442"><ele>96.0</ele><time>2026-04-17T15:47:58.715Z</time></trkpt><trkpt lat="44.8878797" lon="8.6776403"><ele>96.0</ele><time>2026-04-17T15:47:59.716Z</time></trkpt><trkpt lat="44.8877993" lon="8.6777305"><ele>96.0</ele><time>2026-04-17T15:48:00.716Z</time></trkpt><trkpt lat="44.8877275" lon="8.6778064"><ele>96.0</ele><time>2026-04-17T15:48:01.716Z</time></trkpt><trkpt lat="44.8876687" lon="8.6778523"><ele>96.0</ele><time>2026-04-17T15:48:02.716Z</time></trkpt><trkpt lat="44.8875849" lon="8.6778399"><ele>96.0</ele><time>2026-04-17T15:48:04.716Z</time></trkpt><trkpt lat="44.8875372" lon="8.6777739"><ele>96.0</ele><time>2026-04-17T15:48:05.715Z</time></trkpt><trkpt lat="44.8874885" lon="8.677687"><ele>96.0</ele><time>2026-04-17T15:48:06.716Z</time></trkpt><trkpt lat="44.8874371" lon="8.6775931"><ele>96.0</ele><time>2026-04-17T15:48:07.715Z</time></trkpt><trkpt lat="44.8873811" lon="8.6775083"><ele>96.0</ele><time>2026-04-17T15:48:08.715Z</time></trkpt><trkpt lat="44.8872861" lon="8.6774124"><ele>96.16666666666667</ele><time>2026-04-17T15:48:10.715Z</time></trkpt><trkpt lat="44.8872111" lon="8.6774177"><ele>96.33333333333334</ele><time>2026-04-17T15:48:11.715Z</time></trkpt><trkpt lat="44.887137" lon="8.6774464"><ele>96.5</ele><time>2026-04-17T15:48:12.715Z</time></trkpt><trkpt lat="44.8870581" lon="8.6774795"><ele>96.66666666666667</ele><time>2026-04-17T15:48:13.715Z</time></trkpt><trkpt lat="44.8869728" lon="8.6775169"><ele>96.83333333333334</ele><time>2026-04-17T15:48:14.715Z</time></trkpt><trkpt lat="44.8868715" lon="8.6775566"><ele>97.0</ele><time>2026-04-17T15:48:15.716Z</time></trkpt><trkpt lat="44.8867627" lon="8.6775915"><ele>97.25</ele><time>2026-04-17T15:48:16.715Z</time></trkpt><trkpt lat="44.8866476" lon="8.6776091"><ele>97.5</ele><time>2026-04-17T15:48:17.716Z</time></trkpt><trkpt lat="44.8865243" lon="8.6776252"><ele>97.75</ele><time>2026-04-17T15:48:18.716Z</time></trkpt><trkpt lat="44.886389" lon="8.6776311"><ele>98.0</ele><time>2026-04-17T15:48:19.716Z</time></trkpt><trkpt lat="44.8862509" lon="8.6776275"><ele>98.0</ele><time>2026-04-17T15:48:20.715Z</time></trkpt><trkpt lat="44.8861059" lon="8.6776293"><ele>98.0</ele><time>2026-04-17T15:48:21.715Z</time></trkpt><trkpt lat="44.8859513" lon="8.6776372"><ele>98.0</ele><time>2026-04-17T15:48:22.716Z</time></trkpt><trkpt lat="44.8857942" lon="8.6776441"><ele>98.25</ele><time>2026-04-17T15:48:23.716Z</time></trkpt><trkpt lat="44.8856388" lon="8.677646"><ele>98.5</ele><time>2026-04-17T15:48:24.715Z</time></trkpt><trkpt lat="44.8854982" lon="8.6776319"><ele>98.75</ele><time>2026-04-17T15:48:25.716Z</time></trkpt><trkpt lat="44.8853561" lon="8.6776116"><ele>99.0</ele><time>2026-04-17T15:48:26.715Z</time></trkpt><trkpt lat="44.885221" lon="8.6775845"><ele>98.25</ele><time>2026-04-17T15:48:27.715Z</time></trkpt><trkpt lat="44.8850954" lon="8.6775527"><ele>97.5</ele><time>2026-04-17T15:48:28.716Z</time></trkpt><trkpt lat="44.8849698" lon="8.677516"><ele>96.75</ele><time>2026-04-17T15:48:29.715Z</time></trkpt><trkpt lat="44.8848452" lon="8.6774695"><ele>96.0</ele><time>2026-04-17T15:48:30.716Z</time></trkpt><trkpt lat="44.8847256" lon="8.6774273"><ele>96.0</ele><time>2026-04-17T15:48:31.715Z</time></trkpt><trkpt lat="44.8845979" lon="8.6773924"><ele>96.0</ele><time>2026-04-17T15:48:32.714Z</time></trkpt><trkpt lat="44.8844651" lon="8.6773546"><ele>96.0</ele><time>2026-04-17T15:48:33.715Z</time></trkpt><trkpt lat="44.8843254" lon="8.6773185"><ele>96.0</ele><time>2026-04-17T15:48:34.714Z</time></trkpt><trkpt lat="44.8841852" lon="8.6772716"><ele>96.25</ele><time>2026-04-17T15:48:35.715Z</time></trkpt><trkpt lat="44.8840436" lon="8.6772271"><ele>96.5</ele><time>2026-04-17T15:48:36.714Z</time></trkpt><trkpt lat="44.8838963" lon="8.6771921"><ele>96.75</ele><time>2026-04-17T15:48:37.715Z</time></trkpt><trkpt lat="44.8837461" lon="8.6771566"><ele>97.0</ele><time>2026-04-17T15:48:38.714Z</time></trkpt><trkpt lat="44.8835908" lon="8.6771184"><ele>97.0</ele><time>2026-04-17T15:48:39.715Z</time></trkpt><trkpt lat="44.8834386" lon="8.6770759"><ele>97.0</ele><time>2026-04-17T15:48:40.715Z</time></trkpt><trkpt lat="44.8832742" lon="8.6770331"><ele>97.0</ele><time>2026-04-17T15:48:41.714Z</time></trkpt><trkpt lat="44.8831222" lon="8.6769898"><ele>97.33333333333334</ele><time>2026-04-17T15:48:42.715Z</time></trkpt><trkpt lat="44.8829726" lon="8.6769446"><ele>97.66666666666666</ele><time>2026-04-17T15:48:43.715Z</time></trkpt><trkpt lat="44.8828214" lon="8.6769038"><ele>98.0</ele><time>2026-04-17T15:48:44.715Z</time></trkpt><trkpt lat="44.8826723" lon="8.6768584"><ele>98.0</ele><time>2026-04-17T15:48:45.715Z</time></trkpt><trkpt lat="44.882527" lon="8.6768033"><ele>98.0</ele><time>2026-04-17T15:48:46.714Z</time></trkpt><trkpt lat="44.8823877" lon="8.6767471"><ele>98.0</ele><time>2026-04-17T15:48:47.714Z</time></trkpt><trkpt lat="44.8822465" lon="8.6766885"><ele>98.0</ele><time>2026-04-17T15:48:48.715Z</time></trkpt><trkpt lat="44.8821108" lon="8.6766435"><ele>98.0</ele><time>2026-04-17T15:48:49.715Z</time></trkpt><trkpt lat="44.8819757" lon="8.6766011"><ele>98.0</ele><time>2026-04-17T15:48:50.715Z</time></trkpt><trkpt lat="44.8818536" lon="8.6765651"><ele>98.0</ele><time>2026-04-17T15:48:51.715Z</time></trkpt><trkpt lat="44.8817509" lon="8.6765375"><ele>98.0</ele><time>2026-04-17T15:48:52.715Z</time></trkpt><trkpt lat="44.881663" lon="8.6765102"><ele>98.0</ele><time>2026-04-17T15:48:53.714Z</time></trkpt><trkpt lat="44.8815788" lon="8.6764935"><ele>98.0</ele><time>2026-04-17T15:48:54.715Z</time></trkpt><trkpt lat="44.8814912" lon="8.6764807"><ele>98.0</ele><time>2026-04-17T15:48:55.715Z</time></trkpt><trkpt lat="44.881389" lon="8.6764613"><ele>98.0</ele><time>2026-04-17T15:48:56.714Z</time></trkpt><trkpt lat="44.8812728" lon="8.6764399"><ele>98.0</ele><time>2026-04-17T15:48:57.715Z</time></trkpt><trkpt lat="44.8811416" lon="8.6764207"><ele>98.0</ele><time>2026-04-17T15:48:58.715Z</time></trkpt><trkpt lat="44.8810116" lon="8.6763828"><ele>98.0</ele><time>2026-04-17T15:48:59.715Z</time></trkpt><trkpt lat="44.8808687" lon="8.6763446"><ele>98.0</ele><time>2026-04-17T15:49:00.715Z</time></trkpt><trkpt lat="44.8807207" lon="8.6763013"><ele>98.0</ele><time>2026-04-17T15:49:01.714Z</time></trkpt><trkpt lat="44.88056" lon="8.676267"><ele>97.66666666666666</ele><time>2026-04-17T15:49:02.714Z</time></trkpt><trkpt lat="44.8803859" lon="8.6762261"><ele>97.33333333333334</ele><time>2026-04-17T15:49:03.714Z</time></trkpt><trkpt lat="44.8802159" lon="8.6761717"><ele>97.0</ele><time>2026-04-17T15:49:04.714Z</time></trkpt><trkpt lat="44.8800373" lon="8.6761104"><ele>96.66666666666667</ele><time>2026-04-17T15:49:05.714Z</time></trkpt><trkpt lat="44.8798671" lon="8.6760537"><ele>96.33333333333334</ele><time>2026-04-17T15:49:06.715Z</time></trkpt><trkpt lat="44.8796954" lon="8.6760004"><ele>96.0</ele><time>2026-04-17T15:49:07.715Z</time></trkpt><trkpt lat="44.8795347" lon="8.6759484"><ele>96.0</ele><time>2026-04-17T15:49:08.715Z</time></trkpt><trkpt lat="44.8793845" lon="8.6758995"><ele>96.0</ele><time>2026-04-17T15:49:09.715Z</time></trkpt><trkpt lat="44.8792401" lon="8.6758533"><ele>96.0</ele><time>2026-04-17T15:49:10.715Z</time></trkpt><trkpt lat="44.8790958" lon="8.6758119"><ele>96.0</ele><time>2026-04-17T15:49:11.715Z</time></trkpt><trkpt lat="44.8789526" lon="8.6757713"><ele>95.66666666666667</ele><time>2026-04-17T15:49:12.715Z</time></trkpt><trkpt lat="44.8788095" lon="8.6757239"><ele>95.33333333333334</ele><time>2026-04-17T15:49:13.715Z</time></trkpt><trkpt lat="44.8786599" lon="8.6756756"><ele>95.0</ele><time>2026-04-17T15:49:14.715Z</time></trkpt><trkpt lat="44.8785078" lon="8.6756242"><ele>95.66666666666667</ele><time>2026-04-17T15:49:15.715Z</time></trkpt><trkpt lat="44.8783455" lon="8.6755653"><ele>96.33333333333334</ele><time>2026-04-17T15:49:16.715Z</time></trkpt><trkpt lat="44.8781758" lon="8.675513"><ele>97.0</ele><time>2026-04-17T15:49:17.715Z</time></trkpt><trkpt lat="44.8780113" lon="8.6754493"><ele>97.0</ele><time>2026-04-17T15:49:18.715Z</time></trkpt><trkpt lat="44.8778437" lon="8.6753923"><ele>97.0</ele><time>2026-04-17T15:49:19.715Z</time></trkpt><trkpt lat="44.8776835" lon="8.6753457"><ele>97.0</ele><time>2026-04-17T15:49:20.715Z</time></trkpt><trkpt lat="44.8775263" lon="8.6752892"><ele>96.66666666666667</ele><time>2026-04-17T15:49:21.715Z</time></trkpt><trkpt lat="44.8773623" lon="8.6752395"><ele>96.33333333333334</ele><time>2026-04-17T15:49:22.715Z</time></trkpt><trkpt lat="44.8771999" lon="8.6751887"><ele>96.0</ele><time>2026-04-17T15:49:23.715Z</time></trkpt><trkpt lat="44.877034" lon="8.6751344"><ele>96.0</ele><time>2026-04-17T15:49:24.715Z</time></trkpt><trkpt lat="44.8768728" lon="8.6750821"><ele>96.0</ele><time>2026-04-17T15:49:25.715Z</time></trkpt><trkpt lat="44.8767083" lon="8.6750408"><ele>96.0</ele><time>2026-04-17T15:49:26.715Z</time></trkpt><trkpt lat="44.8765468" lon="8.675014"><ele>96.0</ele><time>2026-04-17T15:49:27.715Z</time></trkpt><trkpt lat="44.8763792" lon="8.6749942"><ele>96.0</ele><time>2026-04-17T15:49:28.715Z</time></trkpt><trkpt lat="44.8762075" lon="8.674979"><ele>96.0</ele><time>2026-04-17T15:49:29.715Z</time></trkpt><trkpt lat="44.8760298" lon="8.6749427"><ele>96.33333333333334</ele><time>2026-04-17T15:49:30.715Z</time></trkpt><trkpt lat="44.8758406" lon="8.6748861"><ele>96.66666666666667</ele><time>2026-04-17T15:49:31.714Z</time></trkpt><trkpt lat="44.8756459" lon="8.6748264"><ele>97.0</ele><time>2026-04-17T15:49:32.714Z</time></trkpt><trkpt lat="44.8754458" lon="8.6747916"><ele>97.0</ele><time>2026-04-17T15:49:33.715Z</time></trkpt><trkpt lat="44.8752487" lon="8.674749"><ele>97.0</ele><time>2026-04-17T15:49:34.715Z</time></trkpt><trkpt lat="44.8750487" lon="8.6746973"><ele>97.0</ele><time>2026-04-17T15:49:35.714Z</time></trkpt><trkpt lat="44.8748511" lon="8.6746447"><ele>97.33333333333334</ele><time>2026-04-17T15:49:36.715Z</time></trkpt><trkpt lat="44.8746512" lon="8.6745893"><ele>97.66666666666666</ele><time>2026-04-17T15:49:37.715Z</time></trkpt><trkpt lat="44.8744386" lon="8.6745356"><ele>98.0</ele><time>2026-04-17T15:49:38.715Z</time></trkpt><trkpt lat="44.8742181" lon="8.6744762"><ele>98.0</ele><time>2026-04-17T15:49:39.714Z</time></trkpt><trkpt lat="44.8739989" lon="8.6744223"><ele>98.0</ele><time>2026-04-17T15:49:40.715Z</time></trkpt><trkpt lat="44.8737782" lon="8.6743588"><ele>98.0</ele><time>2026-04-17T15:49:41.715Z</time></trkpt><trkpt lat="44.8735553" lon="8.6742712"><ele>97.5</ele><time>2026-04-17T15:49:42.714Z</time></trkpt><trkpt lat="44.8733332" lon="8.674182"><ele>97.0</ele><time>2026-04-17T15:49:43.715Z</time></trkpt><trkpt lat="44.8731069" lon="8.6741032"><ele>97.0</ele><time>2026-04-17T15:49:44.715Z</time></trkpt><trkpt lat="44.8728824" lon="8.6740189"><ele>97.0</ele><time>2026-04-17T15:49:45.715Z</time></trkpt><trkpt lat="44.8726527" lon="8.6739395"><ele>97.5</ele><time>2026-04-17T15:49:46.715Z</time></trkpt><trkpt lat="44.8724181" lon="8.6738632"><ele>98.0</ele><time>2026-04-17T15:49:47.715Z</time></trkpt><trkpt lat="44.8721831" lon="8.67378"><ele>98.0</ele><time>2026-04-17T15:49:48.715Z</time></trkpt><trkpt lat="44.8719467" lon="8.6736967"><ele>98.0</ele><time>2026-04-17T15:49:49.714Z</time></trkpt><trkpt lat="44.871712" lon="8.6736037"><ele>98.5</ele><time>2026-04-17T15:49:50.715Z</time></trkpt><trkpt lat="44.871485" lon="8.6735197"><ele>99.0</ele><time>2026-04-17T15:49:51.715Z</time></trkpt><trkpt lat="44.8712662" lon="8.673443"><ele>99.0</ele><time>2026-04-17T15:49:52.715Z</time></trkpt><trkpt lat="44.8710468" lon="8.6733544"><ele>99.0</ele><time>2026-04-17T15:49:53.715Z</time></trkpt><trkpt lat="44.8708235" lon="8.6732766"><ele>98.0</ele><time>2026-04-17T15:49:54.715Z</time></trkpt><trkpt lat="44.8705986" lon="8.6732076"><ele>97.0</ele><time>2026-04-17T15:49:55.715Z</time></trkpt><trkpt lat="44.8703762" lon="8.6731442"><ele>97.0</ele><time>2026-04-17T15:49:56.714Z</time></trkpt><trkpt lat="44.8701526" lon="8.6730929"><ele>97.0</ele><time>2026-04-17T15:49:57.715Z</time></trkpt><trkpt lat="44.8699224" lon="8.6730245"><ele>97.5</ele><time>2026-04-17T15:49:58.715Z</time></trkpt><trkpt lat="44.8696883" lon="8.6729525"><ele>98.0</ele><time>2026-04-17T15:49:59.715Z</time></trkpt><trkpt lat="44.8694634" lon="8.6728729"><ele>98.0</ele><time>2026-04-17T15:50:00.715Z</time></trkpt><trkpt lat="44.8692426" lon="8.6727972"><ele>98.0</ele><time>2026-04-17T15:50:01.715Z</time></trkpt><trkpt lat="44.8690211" lon="8.6727272"><ele>98.0</ele><time>2026-04-17T15:50:02.715Z</time></trkpt><trkpt lat="44.8688028" lon="8.6726587"><ele>98.0</ele><time>2026-04-17T15:50:03.715Z</time></trkpt><trkpt lat="44.868582" lon="8.6725933"><ele>98.0</ele><time>2026-04-17T15:50:04.715Z</time></trkpt><trkpt lat="44.8683676" lon="8.6725221"><ele>98.33333333333333</ele><time>2026-04-17T15:50:05.714Z</time></trkpt><trkpt lat="44.8681541" lon="8.6724604"><ele>98.66666666666666</ele><time>2026-04-17T15:50:06.714Z</time></trkpt><trkpt lat="44.8679423" lon="8.6724024"><ele>99.0</ele><time>2026-04-17T15:50:07.715Z</time></trkpt><trkpt lat="44.8677335" lon="8.6723464"><ele>99.0</ele><time>2026-04-17T15:50:08.714Z</time></trkpt><trkpt lat="44.8675267" lon="8.672293"><ele>99.0</ele><time>2026-04-17T15:50:09.715Z</time></trkpt><trkpt lat="44.8673197" lon="8.6722559"><ele>99.0</ele><time>2026-04-17T15:50:10.715Z</time></trkpt><trkpt lat="44.8671087" lon="8.6722149"><ele>99.0</ele><time>2026-04-17T15:50:11.715Z</time></trkpt><trkpt lat="44.8669014" lon="8.6721705"><ele>99.0</ele><time>2026-04-17T15:50:12.714Z</time></trkpt><trkpt lat="44.8666917" lon="8.6721178"><ele>99.0</ele><time>2026-04-17T15:50:13.715Z</time></trkpt><trkpt lat="44.8664831" lon="8.6720632"><ele>99.0</ele><time>2026-04-17T15:50:14.714Z</time></trkpt><trkpt lat="44.8662717" lon="8.6720151"><ele>99.0</ele><time>2026-04-17T15:50:15.715Z</time></trkpt><trkpt lat="44.8660691" lon="8.6719754"><ele>99.0</ele><time>2026-04-17T15:50:16.715Z</time></trkpt><trkpt lat="44.8658741" lon="8.6719458"><ele>99.33333333333334</ele><time>2026-04-17T15:50:17.714Z</time></trkpt><trkpt lat="44.8656752" lon="8.6719421"><ele>99.66666666666667</ele><time>2026-04-17T15:50:18.715Z</time></trkpt><trkpt lat="44.8654815" lon="8.6719721"><ele>100.0</ele><time>2026-04-17T15:50:19.714Z</time></trkpt><trkpt lat="44.8652869" lon="8.6720197"><ele>100.33333333333334</ele><time>2026-04-17T15:50:20.714Z</time></trkpt><trkpt lat="44.8650889" lon="8.6720618"><ele>100.66666666666666</ele><time>2026-04-17T15:50:21.715Z</time></trkpt><trkpt lat="44.8648947" lon="8.6721001"><ele>101.0</ele><time>2026-04-17T15:50:22.715Z</time></trkpt><trkpt lat="44.8647014" lon="8.672144"><ele>101.0</ele><time>2026-04-17T15:50:23.715Z</time></trkpt><trkpt lat="44.8645114" lon="8.6721987"><ele>101.0</ele><time>2026-04-17T15:50:24.714Z</time></trkpt><trkpt lat="44.8643325" lon="8.6722845"><ele>101.0</ele><time>2026-04-17T15:50:25.715Z</time></trkpt><trkpt lat="44.8641515" lon="8.6723866"><ele>100.33333333333333</ele><time>2026-04-17T15:50:26.715Z</time></trkpt><trkpt lat="44.863968" lon="8.6724825"><ele>99.66666666666666</ele><time>2026-04-17T15:50:27.715Z</time></trkpt><trkpt lat="44.8637819" lon="8.6725847"><ele>99.0</ele><time>2026-04-17T15:50:28.715Z</time></trkpt><trkpt lat="44.8635981" lon="8.6726864"><ele>99.33333333333334</ele><time>2026-04-17T15:50:29.715Z</time></trkpt><trkpt lat="44.8634148" lon="8.6727888"><ele>99.66666666666667</ele><time>2026-04-17T15:50:30.715Z</time></trkpt><trkpt lat="44.8632257" lon="8.6728935"><ele>100.0</ele><time>2026-04-17T15:50:31.715Z</time></trkpt><trkpt lat="44.8630358" lon="8.6729971"><ele>100.0</ele><time>2026-04-17T15:50:32.715Z</time></trkpt><trkpt lat="44.8628437" lon="8.6730958"><ele>100.0</ele><time>2026-04-17T15:50:33.715Z</time></trkpt><trkpt lat="44.8626504" lon="8.6731915"><ele>100.0</ele><time>2026-04-17T15:50:34.715Z</time></trkpt><trkpt lat="44.8624569" lon="8.6732895"><ele>100.0</ele><time>2026-04-17T15:50:35.715Z</time></trkpt><trkpt lat="44.8622593" lon="8.6733976"><ele>100.0</ele><time>2026-04-17T15:50:36.715Z</time></trkpt><trkpt lat="44.8620639" lon="8.6735081"><ele>100.0</ele><time>2026-04-17T15:50:37.715Z</time></trkpt><trkpt lat="44.8618714" lon="8.673612"><ele>100.0</ele><time>2026-04-17T15:50:38.714Z</time></trkpt><trkpt lat="44.861674" lon="8.6737161"><ele>100.0</ele><time>2026-04-17T15:50:39.715Z</time></trkpt><trkpt lat="44.8614753" lon="8.6738177"><ele>100.0</ele><time>2026-04-17T15:50:40.715Z</time></trkpt><trkpt lat="44.8612821" lon="8.6739228"><ele>100.0</ele><time>2026-04-17T15:50:41.714Z</time></trkpt><trkpt lat="44.8610849" lon="8.6740201"><ele>100.0</ele><time>2026-04-17T15:50:42.715Z</time></trkpt><trkpt lat="44.8608883" lon="8.6741225"><ele>100.0</ele><time>2026-04-17T15:50:43.715Z</time></trkpt><trkpt lat="44.8606875" lon="8.6742284"><ele>100.33333333333334</ele><time>2026-04-17T15:50:44.715Z</time></trkpt><trkpt lat="44.8604883" lon="8.6743324"><ele>100.66666666666666</ele><time>2026-04-17T15:50:45.715Z</time></trkpt><trkpt lat="44.86029" lon="8.67444"><ele>101.0</ele><time>2026-04-17T15:50:46.714Z</time></trkpt><trkpt lat="44.8600949" lon="8.674546"><ele>101.0</ele><time>2026-04-17T15:50:47.715Z</time></trkpt><trkpt lat="44.859901" lon="8.6746435"><ele>101.0</ele><time>2026-04-17T15:50:48.714Z</time></trkpt><trkpt lat="44.8597071" lon="8.6747397"><ele>101.0</ele><time>2026-04-17T15:50:49.715Z</time></trkpt><trkpt lat="44.8595067" lon="8.6748448"><ele>101.0</ele><time>2026-04-17T15:50:50.715Z</time></trkpt><trkpt lat="44.8593136" lon="8.6749441"><ele>101.0</ele><time>2026-04-17T15:50:51.715Z</time></trkpt><trkpt lat="44.859126" lon="8.6750455"><ele>101.0</ele><time>2026-04-17T15:50:52.714Z</time></trkpt><trkpt lat="44.8589376" lon="8.6751485"><ele>101.0</ele><time>2026-04-17T15:50:53.715Z</time></trkpt><trkpt lat="44.8587427" lon="8.6752538"><ele>101.0</ele><time>2026-04-17T15:50:54.715Z</time></trkpt><trkpt lat="44.8585533" lon="8.6753672"><ele>101.0</ele><time>2026-04-17T15:50:55.715Z</time></trkpt><trkpt lat="44.8583664" lon="8.6754777"><ele>101.33333333333333</ele><time>2026-04-17T15:50:56.715Z</time></trkpt><trkpt lat="44.858178" lon="8.6755759"><ele>101.66666666666666</ele><time>2026-04-17T15:50:57.715Z</time></trkpt><trkpt lat="44.857987" lon="8.6756741"><ele>102.0</ele><time>2026-04-17T15:50:58.715Z</time></trkpt><trkpt lat="44.857794" lon="8.6757696"><ele>102.0</ele><time>2026-04-17T15:50:59.715Z</time></trkpt><trkpt lat="44.857602" lon="8.6758662"><ele>102.0</ele><time>2026-04-17T15:51:00.715Z</time></trkpt><trkpt lat="44.857403" lon="8.6759473"><ele>102.0</ele><time>2026-04-17T15:51:01.715Z</time></trkpt><trkpt lat="44.8572043" lon="8.676006"><ele>102.0</ele><time>2026-04-17T15:51:02.714Z</time></trkpt><trkpt lat="44.8570054" lon="8.6760558"><ele>102.0</ele><time>2026-04-17T15:51:03.715Z</time></trkpt><trkpt lat="44.8567993" lon="8.6761023"><ele>102.0</ele><time>2026-04-17T15:51:04.715Z</time></trkpt><trkpt lat="44.8566025" lon="8.6761489"><ele>102.33333333333334</ele><time>2026-04-17T15:51:05.715Z</time></trkpt><trkpt lat="44.8563974" lon="8.6761956"><ele>102.66666666666667</ele><time>2026-04-17T15:51:06.715Z</time></trkpt><trkpt lat="44.8561952" lon="8.6762437"><ele>103.0</ele><time>2026-04-17T15:51:07.714Z</time></trkpt><trkpt lat="44.8559918" lon="8.67628"><ele>103.33333333333334</ele><time>2026-04-17T15:51:08.715Z</time></trkpt><trkpt lat="44.8557883" lon="8.6763209"><ele>103.66666666666666</ele><time>2026-04-17T15:51:09.714Z</time></trkpt><trkpt lat="44.855579" lon="8.6763596"><ele>104.0</ele><time>2026-04-17T15:51:10.715Z</time></trkpt><trkpt lat="44.8553664" lon="8.6764051"><ele>104.0</ele><time>2026-04-17T15:51:11.715Z</time></trkpt><trkpt lat="44.855156" lon="8.6764467"><ele>104.0</ele><time>2026-04-17T15:51:12.715Z</time></trkpt><trkpt lat="44.8549439" lon="8.6764914"><ele>104.0</ele><time>2026-04-17T15:51:13.715Z</time></trkpt><trkpt lat="44.8547337" lon="8.6765355"><ele>104.33333333333333</ele><time>2026-04-17T15:51:14.715Z</time></trkpt><trkpt lat="44.8545234" lon="8.6765958"><ele>104.66666666666666</ele><time>2026-04-17T15:51:15.715Z</time></trkpt><trkpt lat="44.8543149" lon="8.6766482"><ele>105.0</ele><time>2026-04-17T15:51:16.715Z</time></trkpt><trkpt lat="44.8541052" lon="8.6767087"><ele>105.66666666666666</ele><time>2026-04-17T15:51:17.715Z</time></trkpt><trkpt lat="44.8538949" lon="8.6767731"><ele>106.33333333333333</ele><time>2026-04-17T15:51:18.715Z</time></trkpt><trkpt lat="44.8536867" lon="8.6768401"><ele>107.0</ele><time>2026-04-17T15:51:19.715Z</time></trkpt><trkpt lat="44.8534741" lon="8.6768998"><ele>106.33333333333333</ele><time>2026-04-17T15:51:20.715Z</time></trkpt><trkpt lat="44.8532652" lon="8.6769662"><ele>105.66666666666666</ele><time>2026-04-17T15:51:21.715Z</time></trkpt><trkpt lat="44.8530525" lon="8.6770292"><ele>105.0</ele><time>2026-04-17T15:51:22.714Z</time></trkpt><trkpt lat="44.8528447" lon="8.6770968"><ele>105.0</ele><time>2026-04-17T15:51:23.715Z</time></trkpt><trkpt lat="44.8526492" lon="8.6771529"><ele>105.0</ele><time>2026-04-17T15:51:24.715Z</time></trkpt><trkpt lat="44.852462" lon="8.677201"><ele>105.0</ele><time>2026-04-17T15:51:25.715Z</time></trkpt><trkpt lat="44.8522853" lon="8.6772164"><ele>105.0</ele><time>2026-04-17T15:51:26.715Z</time></trkpt><trkpt lat="44.8521034" lon="8.6772089"><ele>105.0</ele><time>2026-04-17T15:51:27.715Z</time></trkpt><trkpt lat="44.8519174" lon="8.6771824"><ele>105.0</ele><time>2026-04-17T15:51:28.715Z</time></trkpt><trkpt lat="44.8517379" lon="8.6771424"><ele>105.0</ele><time>2026-04-17T15:51:29.714Z</time></trkpt><trkpt lat="44.8515707" lon="8.6770894"><ele>105.0</ele><time>2026-04-17T15:51:30.714Z</time></trkpt><trkpt lat="44.851417" lon="8.6770264"><ele>105.0</ele><time>2026-04-17T15:51:31.715Z</time></trkpt><trkpt lat="44.8512763" lon="8.6769496"><ele>105.0</ele><time>2026-04-17T15:51:32.715Z</time></trkpt><trkpt lat="44.851136" lon="8.6768693"><ele>105.0</ele><time>2026-04-17T15:51:33.715Z</time></trkpt><trkpt lat="44.8510003" lon="8.676803"><ele>105.0</ele><time>2026-04-17T15:51:34.715Z</time></trkpt><trkpt lat="44.8508521" lon="8.6767478"><ele>105.0</ele><time>2026-04-17T15:51:35.715Z</time></trkpt><trkpt lat="44.850691" lon="8.6767209"><ele>105.0</ele><time>2026-04-17T15:51:36.715Z</time></trkpt><trkpt lat="44.8505278" lon="8.6767283"><ele>105.0</ele><time>2026-04-17T15:51:37.715Z</time></trkpt><trkpt lat="44.850371" lon="8.6767505"><ele>105.0</ele><time>2026-04-17T15:51:38.715Z</time></trkpt><trkpt lat="44.8502116" lon="8.6767755"><ele>106.0</ele><time>2026-04-17T15:51:39.714Z</time></trkpt><trkpt lat="44.8500476" lon="8.6768172"><ele>107.0</ele><time>2026-04-17T15:51:40.714Z</time></trkpt><trkpt lat="44.8498794" lon="8.676882"><ele>108.0</ele><time>2026-04-17T15:51:41.715Z</time></trkpt><trkpt lat="44.8497066" lon="8.6769505"><ele>108.0</ele><time>2026-04-17T15:51:42.715Z</time></trkpt><trkpt lat="44.8495353" lon="8.6770128"><ele>108.0</ele><time>2026-04-17T15:51:43.715Z</time></trkpt><trkpt lat="44.8493575" lon="8.6770769"><ele>108.0</ele><time>2026-04-17T15:51:44.715Z</time></trkpt><trkpt lat="44.8491787" lon="8.6771532"><ele>108.0</ele><time>2026-04-17T15:51:45.715Z</time></trkpt><trkpt lat="44.8490041" lon="8.6772251"><ele>108.0</ele><time>2026-04-17T15:51:46.714Z</time></trkpt><trkpt lat="44.8488283" lon="8.6772937"><ele>108.0</ele><time>2026-04-17T15:51:47.715Z</time></trkpt><trkpt lat="44.8486654" lon="8.6773456"><ele>108.0</ele><time>2026-04-17T15:51:48.714Z</time></trkpt><trkpt lat="44.8485106" lon="8.6773933"><ele>108.0</ele><time>2026-04-17T15:51:49.715Z</time></trkpt><trkpt lat="44.8483683" lon="8.6774467"><ele>108.0</ele><time>2026-04-17T15:51:50.715Z</time></trkpt><trkpt lat="44.8482381" lon="8.6774825"><ele>108.0</ele><time>2026-04-17T15:51:51.715Z</time></trkpt><trkpt lat="44.8481414" lon="8.6774826"><ele>108.0</ele><time>2026-04-17T15:51:52.714Z</time></trkpt><trkpt lat="44.8480627" lon="8.6774559"><ele>108.0</ele><time>2026-04-17T15:51:53.715Z</time></trkpt><trkpt lat="44.8479917" lon="8.6774443"><ele>108.0</ele><time>2026-04-17T15:51:54.715Z</time></trkpt><trkpt lat="44.8479285" lon="8.6774685"><ele>108.0</ele><time>2026-04-17T15:51:55.714Z</time></trkpt><trkpt lat="44.8478672" lon="8.6775907"><ele>108.0</ele><time>2026-04-17T15:51:57.714Z</time></trkpt><trkpt lat="44.8478789" lon="8.6777108"><ele>108.0</ele><time>2026-04-17T15:51:58.715Z</time></trkpt><trkpt lat="44.8479029" lon="8.6778443"><ele>108.0</ele><time>2026-04-17T15:51:59.715Z</time></trkpt><trkpt lat="44.8479181" lon="8.6779813"><ele>108.0</ele><time>2026-04-17T15:52:00.715Z</time></trkpt><trkpt lat="44.8479133" lon="8.6781291"><ele>108.0</ele><time>2026-04-17T15:52:01.715Z</time></trkpt><trkpt lat="44.8478893" lon="8.6782967"><ele>108.0</ele><time>2026-04-17T15:52:02.714Z</time></trkpt><trkpt lat="44.8478579" lon="8.6784743"><ele>108.25</ele><time>2026-04-17T15:52:03.715Z</time></trkpt><trkpt lat="44.8478316" lon="8.6786574"><ele>108.5</ele><time>2026-04-17T15:52:04.715Z</time></trkpt><trkpt lat="44.8477917" lon="8.6788561"><ele>108.75</ele><time>2026-04-17T15:52:05.715Z</time></trkpt><trkpt lat="44.8477558" lon="8.6790685"><ele>109.0</ele><time>2026-04-17T15:52:06.715Z</time></trkpt><trkpt lat="44.8477203" lon="8.6792851"><ele>109.0</ele><time>2026-04-17T15:52:07.715Z</time></trkpt><trkpt lat="44.8476822" lon="8.6795113"><ele>109.0</ele><time>2026-04-17T15:52:08.715Z</time></trkpt><trkpt lat="44.8476488" lon="8.6797369"><ele>109.0</ele><time>2026-04-17T15:52:09.715Z</time></trkpt><trkpt lat="44.8476128" lon="8.6799759"><ele>109.0</ele><time>2026-04-17T15:52:10.714Z</time></trkpt><trkpt lat="44.8475678" lon="8.6802195"><ele>109.0</ele><time>2026-04-17T15:52:11.715Z</time></trkpt><trkpt lat="44.847523" lon="8.6804757"><ele>109.0</ele><time>2026-04-17T15:52:12.715Z</time></trkpt><trkpt lat="44.8474774" lon="8.6807361"><ele>109.0</ele><time>2026-04-17T15:52:13.715Z</time></trkpt><trkpt lat="44.8474293" lon="8.6809896"><ele>109.0</ele><time>2026-04-17T15:52:14.715Z</time></trkpt><trkpt lat="44.8473921" lon="8.681228"><ele>109.0</ele><time>2026-04-17T15:52:15.714Z</time></trkpt><trkpt lat="44.8473495" lon="8.6814607"><ele>108.66666666666667</ele><time>2026-04-17T15:52:16.714Z</time></trkpt><trkpt lat="44.8472956" lon="8.6816836"><ele>108.33333333333334</ele><time>2026-04-17T15:52:17.715Z</time></trkpt><trkpt lat="44.8472387" lon="8.6818855"><ele>108.0</ele><time>2026-04-17T15:52:18.715Z</time></trkpt><trkpt lat="44.8471733" lon="8.6820695"><ele>108.0</ele><time>2026-04-17T15:52:19.715Z</time></trkpt><trkpt lat="44.8470983" lon="8.6822226"><ele>108.00000000000001</ele><time>2026-04-17T15:52:20.714Z</time></trkpt><trkpt lat="44.8470108" lon="8.6823283"><ele>108.00000000000001</ele><time>2026-04-17T15:52:21.715Z</time></trkpt><trkpt lat="44.8469272" lon="8.6823845"><ele>108.0</ele><time>2026-04-17T15:52:22.715Z</time></trkpt><trkpt lat="44.8468412" lon="8.6824499"><ele>108.0</ele><time>2026-04-17T15:52:23.714Z</time></trkpt><trkpt lat="44.8467799" lon="8.6825499"><ele>108.25</ele><time>2026-04-17T15:52:24.715Z</time></trkpt><trkpt lat="44.8467323" lon="8.682689"><ele>108.5</ele><time>2026-04-17T15:52:25.714Z</time></trkpt><trkpt lat="44.8466717" lon="8.6828515"><ele>108.75</ele><time>2026-04-17T15:52:26.714Z</time></trkpt><trkpt lat="44.8465774" lon="8.6830092"><ele>109.0</ele><time>2026-04-17T15:52:27.714Z</time></trkpt><trkpt lat="44.8464619" lon="8.6831726"><ele>109.33333333333334</ele><time>2026-04-17T15:52:28.715Z</time></trkpt><trkpt lat="44.8463384" lon="8.683345"><ele>109.66666666666666</ele><time>2026-04-17T15:52:29.714Z</time></trkpt><trkpt lat="44.8461972" lon="8.6835357"><ele>110.0</ele><time>2026-04-17T15:52:30.715Z</time></trkpt><trkpt lat="44.8460631" lon="8.6837134"><ele>110.33333333333333</ele><time>2026-04-17T15:52:31.715Z</time></trkpt><trkpt lat="44.8459239" lon="8.6838983"><ele>110.66666666666666</ele><time>2026-04-17T15:52:32.715Z</time></trkpt><trkpt lat="44.8457794" lon="8.6840923"><ele>111.0</ele><time>2026-04-17T15:52:33.715Z</time></trkpt><trkpt lat="44.8456343" lon="8.6842818"><ele>112.0</ele><time>2026-04-17T15:52:34.714Z</time></trkpt><trkpt lat="44.8454915" lon="8.6844716"><ele>113.0</ele><time>2026-04-17T15:52:35.714Z</time></trkpt><trkpt lat="44.8453437" lon="8.6846605"><ele>114.0</ele><time>2026-04-17T15:52:36.715Z</time></trkpt><trkpt lat="44.8451965" lon="8.6848619"><ele>113.0</ele><time>2026-04-17T15:52:37.715Z</time></trkpt><trkpt lat="44.8450463" lon="8.6850564"><ele>112.0</ele><time>2026-04-17T15:52:38.714Z</time></trkpt><trkpt lat="44.8449001" lon="8.6852508"><ele>111.0</ele><time>2026-04-17T15:52:39.714Z</time></trkpt><trkpt lat="44.8447521" lon="8.6854457"><ele>111.0</ele><time>2026-04-17T15:52:40.715Z</time></trkpt><trkpt lat="44.8446023" lon="8.6856436"><ele>111.0</ele><time>2026-04-17T15:52:41.714Z</time></trkpt><trkpt lat="44.8444532" lon="8.6858443"><ele>111.0</ele><time>2026-04-17T15:52:42.715Z</time></trkpt><trkpt lat="44.8443155" lon="8.6860344"><ele>111.66666666666666</ele><time>2026-04-17T15:52:43.715Z</time></trkpt><trkpt lat="44.8441826" lon="8.6862229"><ele>112.33333333333333</ele><time>2026-04-17T15:52:44.714Z</time></trkpt><trkpt lat="44.8440602" lon="8.6863973"><ele>113.0</ele><time>2026-04-17T15:52:45.715Z</time></trkpt><trkpt lat="44.8439417" lon="8.6865566"><ele>113.0</ele><time>2026-04-17T15:52:46.715Z</time></trkpt><trkpt lat="44.8438288" lon="8.6867007"><ele>113.0</ele><time>2026-04-17T15:52:47.714Z</time></trkpt><trkpt lat="44.8437258" lon="8.6868087"><ele>113.0</ele><time>2026-04-17T15:52:48.715Z</time></trkpt><trkpt lat="44.8436448" lon="8.6868736"><ele>113.0</ele><time>2026-04-17T15:52:49.715Z</time></trkpt><trkpt lat="44.8435611" lon="8.6869036"><ele>112.99999999999999</ele><time>2026-04-17T15:52:50.715Z</time></trkpt><trkpt lat="44.8434809" lon="8.6869215"><ele>113.0</ele><time>2026-04-17T15:52:51.715Z</time></trkpt><trkpt lat="44.8434148" lon="8.6869629"><ele>113.0</ele><time>2026-04-17T15:52:52.715Z</time></trkpt><trkpt lat="44.84337" lon="8.6870426"><ele>113.0</ele><time>2026-04-17T15:52:53.715Z</time></trkpt><trkpt lat="44.8433493" lon="8.6871652"><ele>112.99999999999999</ele><time>2026-04-17T15:52:54.715Z</time></trkpt><trkpt lat="44.8433341" lon="8.6873053"><ele>113.0</ele><time>2026-04-17T15:52:55.715Z</time></trkpt><trkpt lat="44.8432987" lon="8.6874353"><ele>113.25</ele><time>2026-04-17T15:52:56.714Z</time></trkpt><trkpt lat="44.8432325" lon="8.6875506"><ele>113.5</ele><time>2026-04-17T15:52:57.715Z</time></trkpt><trkpt lat="44.8431588" lon="8.6876898"><ele>113.75</ele><time>2026-04-17T15:52:58.715Z</time></trkpt><trkpt lat="44.8430757" lon="8.6878403"><ele>114.0</ele><time>2026-04-17T15:52:59.715Z</time></trkpt><trkpt lat="44.8429888" lon="8.6879895"><ele>114.25</ele><time>2026-04-17T15:53:00.715Z</time></trkpt><trkpt lat="44.8429011" lon="8.688139"><ele>114.5</ele><time>2026-04-17T15:53:01.715Z</time></trkpt><trkpt lat="44.8428162" lon="8.6882874"><ele>114.75</ele><time>2026-04-17T15:53:02.715Z</time></trkpt><trkpt lat="44.8427292" lon="8.6884312"><ele>115.0</ele><time>2026-04-17T15:53:03.715Z</time></trkpt><trkpt lat="44.8426545" lon="8.6885687"><ele>115.00000000000001</ele><time>2026-04-17T15:53:04.715Z</time></trkpt><trkpt lat="44.8425828" lon="8.6886991"><ele>115.0</ele><time>2026-04-17T15:53:05.714Z</time></trkpt><trkpt lat="44.8425238" lon="8.6888034"><ele>115.0</ele><time>2026-04-17T15:53:06.715Z</time></trkpt><trkpt lat="44.8424812" lon="8.6888744"><ele>115.0</ele><time>2026-04-17T15:53:07.715Z</time></trkpt><trkpt lat="44.8424326" lon="8.6889731"><ele>115.00000000000001</ele><time>2026-04-17T15:53:50.714Z</time></trkpt><trkpt lat="44.8423876" lon="8.6890681"><ele>115.0</ele><time>2026-04-17T15:53:51.714Z</time></trkpt><trkpt lat="44.842328" lon="8.6891805"><ele>115.0</ele><time>2026-04-17T15:53:52.714Z</time></trkpt><trkpt lat="44.842253" lon="8.6893036"><ele>115.0</ele><time>2026-04-17T15:53:53.713Z</time></trkpt><trkpt lat="44.8421673" lon="8.6894428"><ele>115.0</ele><time>2026-04-17T15:53:54.714Z</time></trkpt><trkpt lat="44.8420691" lon="8.6895951"><ele>115.0</ele><time>2026-04-17T15:53:55.714Z</time></trkpt><trkpt lat="44.8419617" lon="8.6897505"><ele>115.0</ele><time>2026-04-17T15:53:56.714Z</time></trkpt><trkpt lat="44.8418451" lon="8.6899123"><ele>115.0</ele><time>2026-04-17T15:53:57.714Z</time></trkpt><trkpt lat="44.8417097" lon="8.6900726"><ele>115.0</ele><time>2026-04-17T15:53:58.713Z</time></trkpt><trkpt lat="44.8415702" lon="8.6902345"><ele>115.0</ele><time>2026-04-17T15:53:59.714Z</time></trkpt><trkpt lat="44.8414273" lon="8.6903891"><ele>115.0</ele><time>2026-04-17T15:54:00.714Z</time></trkpt><trkpt lat="44.8412714" lon="8.6905481"><ele>115.0</ele><time>2026-04-17T15:54:01.713Z</time></trkpt><trkpt lat="44.8411154" lon="8.690693"><ele>115.0</ele><time>2026-04-17T15:54:02.714Z</time></trkpt><trkpt lat="44.84096" lon="8.6908216"><ele>115.0</ele><time>2026-04-17T15:54:03.714Z</time></trkpt><trkpt lat="44.840815" lon="8.690924"><ele>115.0</ele><time>2026-04-17T15:54:04.714Z</time></trkpt><trkpt lat="44.8407046" lon="8.6909875"><ele>115.0</ele><time>2026-04-17T15:54:05.713Z</time></trkpt><trkpt lat="44.8406234" lon="8.6910075"><ele>115.0</ele><time>2026-04-17T15:54:06.714Z</time></trkpt><trkpt lat="44.8405392" lon="8.6910159"><ele>115.0</ele><time>2026-04-17T15:54:07.714Z</time></trkpt><trkpt lat="44.8404477" lon="8.6910374"><ele>115.0</ele><time>2026-04-17T15:54:08.713Z</time></trkpt><trkpt lat="44.8403627" lon="8.6911023"><ele>115.0</ele><time>2026-04-17T15:54:09.714Z</time></trkpt><trkpt lat="44.8402764" lon="8.6911996"><ele>115.25</ele><time>2026-04-17T15:54:10.714Z</time></trkpt><trkpt lat="44.8401689" lon="8.6912858"><ele>115.5</ele><time>2026-04-17T15:54:11.714Z</time></trkpt><trkpt lat="44.8400356" lon="8.6913334"><ele>115.75</ele><time>2026-04-17T15:54:12.714Z</time></trkpt><trkpt lat="44.8398824" lon="8.6913639"><ele>116.0</ele><time>2026-04-17T15:54:13.714Z</time></trkpt><trkpt lat="44.8397181" lon="8.6913942"><ele>116.0</ele><time>2026-04-17T15:54:14.714Z</time></trkpt><trkpt lat="44.8395518" lon="8.6914205"><ele>116.0</ele><time>2026-04-17T15:54:15.714Z</time></trkpt><trkpt lat="44.8393725" lon="8.6914418"><ele>116.0</ele><time>2026-04-17T15:54:16.714Z</time></trkpt><trkpt lat="44.8391812" lon="8.6914593"><ele>116.33333333333333</ele><time>2026-04-17T15:54:17.714Z</time></trkpt><trkpt lat="44.8389919" lon="8.6914719"><ele>116.66666666666666</ele><time>2026-04-17T15:54:18.713Z</time></trkpt><trkpt lat="44.8387931" lon="8.6914824"><ele>117.0</ele><time>2026-04-17T15:54:19.714Z</time></trkpt><trkpt lat="44.8385897" lon="8.6914939"><ele>117.33333333333334</ele><time>2026-04-17T15:54:20.714Z</time></trkpt><trkpt lat="44.83839" lon="8.6914986"><ele>117.66666666666667</ele><time>2026-04-17T15:54:21.713Z</time></trkpt><trkpt lat="44.838192" lon="8.691498"><ele>118.0</ele><time>2026-04-17T15:54:22.714Z</time></trkpt><trkpt lat="44.8379878" lon="8.6915133"><ele>118.0</ele><time>2026-04-17T15:54:23.714Z</time></trkpt><trkpt lat="44.8377741" lon="8.6915228"><ele>118.0</ele><time>2026-04-17T15:54:24.714Z</time></trkpt><trkpt lat="44.8375576" lon="8.6915412"><ele>118.0</ele><time>2026-04-17T15:54:25.714Z</time></trkpt><trkpt lat="44.8373419" lon="8.6915475"><ele>117.66666666666667</ele><time>2026-04-17T15:54:26.714Z</time></trkpt><trkpt lat="44.8371266" lon="8.6915541"><ele>117.33333333333334</ele><time>2026-04-17T15:54:27.713Z</time></trkpt><trkpt lat="44.8369056" lon="8.6915692"><ele>117.0</ele><time>2026-04-17T15:54:28.714Z</time></trkpt><trkpt lat="44.8366871" lon="8.6915828"><ele>117.0</ele><time>2026-04-17T15:54:29.713Z</time></trkpt><trkpt lat="44.8364687" lon="8.6915984"><ele>117.0</ele><time>2026-04-17T15:54:30.714Z</time></trkpt><trkpt lat="44.8362519" lon="8.6916037"><ele>117.0</ele><time>2026-04-17T15:54:31.714Z</time></trkpt><trkpt lat="44.8360352" lon="8.6916135"><ele>117.66666666666666</ele><time>2026-04-17T15:54:32.714Z</time></trkpt><trkpt lat="44.8358382" lon="8.6916228"><ele>118.33333333333333</ele><time>2026-04-17T15:54:33.714Z</time></trkpt><trkpt lat="44.8356475" lon="8.6916241"><ele>119.0</ele><time>2026-04-17T15:54:34.714Z</time></trkpt><trkpt lat="44.8354763" lon="8.6916186"><ele>119.0</ele><time>2026-04-17T15:54:35.714Z</time></trkpt><trkpt lat="44.8353158" lon="8.6915898"><ele>119.0</ele><time>2026-04-17T15:54:36.714Z</time></trkpt><trkpt lat="44.8351654" lon="8.6915341"><ele>119.0</ele><time>2026-04-17T15:54:37.714Z</time></trkpt><trkpt lat="44.8350105" lon="8.6914495"><ele>119.66666666666666</ele><time>2026-04-17T15:54:38.714Z</time></trkpt><trkpt lat="44.8348646" lon="8.6913502"><ele>120.33333333333334</ele><time>2026-04-17T15:54:39.713Z</time></trkpt><trkpt lat="44.8347154" lon="8.6912238"><ele>121.0</ele><time>2026-04-17T15:54:40.714Z</time></trkpt><trkpt lat="44.8345653" lon="8.6910734"><ele>121.33333333333334</ele><time>2026-04-17T15:54:41.713Z</time></trkpt><trkpt lat="44.834415" lon="8.690918"><ele>121.66666666666666</ele><time>2026-04-17T15:54:42.714Z</time></trkpt><trkpt lat="44.8342652" lon="8.690766"><ele>122.0</ele><time>2026-04-17T15:54:43.713Z</time></trkpt><trkpt lat="44.8341245" lon="8.6906268"><ele>121.66666666666666</ele><time>2026-04-17T15:54:44.713Z</time></trkpt><trkpt lat="44.8339857" lon="8.6904877"><ele>121.33333333333334</ele><time>2026-04-17T15:54:45.713Z</time></trkpt><trkpt lat="44.8338522" lon="8.690345"><ele>121.0</ele><time>2026-04-17T15:54:46.714Z</time></trkpt><trkpt lat="44.8337171" lon="8.69019"><ele>121.0</ele><time>2026-04-17T15:54:47.714Z</time></trkpt><trkpt lat="44.8335935" lon="8.6900195"><ele>121.0</ele><time>2026-04-17T15:54:48.714Z</time></trkpt><trkpt lat="44.8334848" lon="8.6898254"><ele>121.0</ele><time>2026-04-17T15:54:49.714Z</time></trkpt><trkpt lat="44.8333876" lon="8.6896047"><ele>121.0</ele><time>2026-04-17T15:54:50.714Z</time></trkpt><trkpt lat="44.8333093" lon="8.6893549"><ele>121.0</ele><time>2026-04-17T15:54:51.713Z</time></trkpt><trkpt lat="44.8332429" lon="8.6890875"><ele>121.0</ele><time>2026-04-17T15:54:52.714Z</time></trkpt><trkpt lat="44.8331897" lon="8.6888097"><ele>121.0</ele><time>2026-04-17T15:54:53.714Z</time></trkpt><trkpt lat="44.8331412" lon="8.6885294"><ele>121.0</ele><time>2026-04-17T15:54:54.714Z</time></trkpt><trkpt lat="44.8330905" lon="8.6882498"><ele>121.0</ele><time>2026-04-17T15:54:55.714Z</time></trkpt><trkpt lat="44.833029" lon="8.687971"><ele>120.66666666666667</ele><time>2026-04-17T15:54:56.714Z</time></trkpt><trkpt lat="44.8329725" lon="8.6876927"><ele>120.33333333333334</ele><time>2026-04-17T15:54:57.714Z</time></trkpt><trkpt lat="44.8329159" lon="8.6874131"><ele>120.0</ele><time>2026-04-17T15:54:58.714Z</time></trkpt><trkpt lat="44.8328583" lon="8.687134"><ele>119.66666666666666</ele><time>2026-04-17T15:54:59.714Z</time></trkpt><trkpt lat="44.8328028" lon="8.6868484"><ele>119.33333333333333</ele><time>2026-04-17T15:55:00.713Z</time></trkpt><trkpt lat="44.8327492" lon="8.6865661"><ele>119.0</ele><time>2026-04-17T15:55:01.714Z</time></trkpt><trkpt lat="44.832696" lon="8.6862838"><ele>119.0</ele><time>2026-04-17T15:55:02.714Z</time></trkpt><trkpt lat="44.832637" lon="8.6860214"><ele>119.0</ele><time>2026-04-17T15:55:03.713Z</time></trkpt><trkpt lat="44.8325802" lon="8.6857734"><ele>119.0</ele><time>2026-04-17T15:55:04.714Z</time></trkpt><trkpt lat="44.8325214" lon="8.6855278"><ele>119.0</ele><time>2026-04-17T15:55:05.714Z</time></trkpt><trkpt lat="44.8324552" lon="8.6852954"><ele>119.0</ele><time>2026-04-17T15:55:06.714Z</time></trkpt><trkpt lat="44.8323744" lon="8.6850768"><ele>119.0</ele><time>2026-04-17T15:55:07.714Z</time></trkpt><trkpt lat="44.8322786" lon="8.6848905"><ele>119.0</ele><time>2026-04-17T15:55:08.713Z</time></trkpt><trkpt lat="44.8321686" lon="8.6847147"><ele>119.0</ele><time>2026-04-17T15:55:09.714Z</time></trkpt><trkpt lat="44.832042" lon="8.6845577"><ele>119.0</ele><time>2026-04-17T15:55:10.713Z</time></trkpt><trkpt lat="44.8318991" lon="8.6844169"><ele>119.0</ele><time>2026-04-17T15:55:11.714Z</time></trkpt><trkpt lat="44.8317486" lon="8.684296"><ele>119.0</ele><time>2026-04-17T15:55:12.714Z</time></trkpt><trkpt lat="44.8315866" lon="8.6841985"><ele>119.0</ele><time>2026-04-17T15:55:13.714Z</time></trkpt><trkpt lat="44.8314142" lon="8.6841223"><ele>119.0</ele><time>2026-04-17T15:55:14.714Z</time></trkpt><trkpt lat="44.8312264" lon="8.6840647"><ele>119.0</ele><time>2026-04-17T15:55:15.713Z</time></trkpt><trkpt lat="44.8310237" lon="8.6840215"><ele>119.0</ele><time>2026-04-17T15:55:16.714Z</time></trkpt><trkpt lat="44.8308197" lon="8.6839882"><ele>118.66666666666666</ele><time>2026-04-17T15:55:17.714Z</time></trkpt><trkpt lat="44.8306139" lon="8.6839669"><ele>118.33333333333334</ele><time>2026-04-17T15:55:18.714Z</time></trkpt><trkpt lat="44.8304124" lon="8.6839517"><ele>118.0</ele><time>2026-04-17T15:55:19.714Z</time></trkpt><trkpt lat="44.8302079" lon="8.6839282"><ele>118.33333333333334</ele><time>2026-04-17T15:55:20.714Z</time></trkpt><trkpt lat="44.8300003" lon="8.6839105"><ele>118.66666666666666</ele><time>2026-04-17T15:55:21.713Z</time></trkpt><trkpt lat="44.8297935" lon="8.683895"><ele>119.0</ele><time>2026-04-17T15:55:22.713Z</time></trkpt><trkpt lat="44.829587" lon="8.6838786"><ele>119.0</ele><time>2026-04-17T15:55:23.714Z</time></trkpt><trkpt lat="44.8293854" lon="8.6838662"><ele>119.0</ele><time>2026-04-17T15:55:24.714Z</time></trkpt><trkpt lat="44.8291919" lon="8.6838531"><ele>119.0</ele><time>2026-04-17T15:55:25.713Z</time></trkpt><trkpt lat="44.8290056" lon="8.68383"><ele>119.66666666666666</ele><time>2026-04-17T15:55:26.714Z</time></trkpt><trkpt lat="44.828816" lon="8.683794"><ele>120.33333333333334</ele><time>2026-04-17T15:55:27.714Z</time></trkpt><trkpt lat="44.8286316" lon="8.6837589"><ele>121.0</ele><time>2026-04-17T15:55:28.714Z</time></trkpt><trkpt lat="44.8284617" lon="8.6836952"><ele>121.66666666666667</ele><time>2026-04-17T15:55:29.714Z</time></trkpt><trkpt lat="44.8282896" lon="8.6836052"><ele>122.33333333333334</ele><time>2026-04-17T15:55:30.714Z</time></trkpt><trkpt lat="44.8281192" lon="8.6834947"><ele>123.0</ele><time>2026-04-17T15:55:31.714Z</time></trkpt><trkpt lat="44.8279481" lon="8.6833804"><ele>123.0</ele><time>2026-04-17T15:55:32.714Z</time></trkpt><trkpt lat="44.8277817" lon="8.6832567"><ele>123.0</ele><time>2026-04-17T15:55:33.714Z</time></trkpt><trkpt lat="44.8276253" lon="8.6831101"><ele>123.0</ele><time>2026-04-17T15:55:34.714Z</time></trkpt><trkpt lat="44.8274695" lon="8.6829659"><ele>123.0</ele><time>2026-04-17T15:55:35.714Z</time></trkpt><trkpt lat="44.8273185" lon="8.6828278"><ele>123.0</ele><time>2026-04-17T15:55:36.714Z</time></trkpt><trkpt lat="44.827173" lon="8.6827005"><ele>123.0</ele><time>2026-04-17T15:55:37.714Z</time></trkpt><trkpt lat="44.8270357" lon="8.6825785"><ele>123.25</ele><time>2026-04-17T15:55:38.714Z</time></trkpt><trkpt lat="44.8269061" lon="8.6824764"><ele>123.5</ele><time>2026-04-17T15:55:39.714Z</time></trkpt><trkpt lat="44.8267902" lon="8.6823849"><ele>123.75</ele><time>2026-04-17T15:55:40.714Z</time></trkpt><trkpt lat="44.8266861" lon="8.6822964"><ele>124.0</ele><time>2026-04-17T15:55:41.714Z</time></trkpt><trkpt lat="44.8265859" lon="8.6822142"><ele>123.6</ele><time>2026-04-17T15:55:42.714Z</time></trkpt><trkpt lat="44.8265005" lon="8.6821375"><ele>123.2</ele><time>2026-04-17T15:55:43.714Z</time></trkpt><trkpt lat="44.8264344" lon="8.6820813"><ele>122.79999999999998</ele><time>2026-04-17T15:55:44.714Z</time></trkpt><trkpt lat="44.8263399" lon="8.6819984"><ele>122.39999999999999</ele><time>2026-04-17T15:55:46.714Z</time></trkpt><trkpt lat="44.8262866" lon="8.6819183"><ele>122.0</ele><time>2026-04-17T15:55:48.713Z</time></trkpt><trkpt lat="44.8262287" lon="8.6818194"><ele>122.0</ele><time>2026-04-17T15:55:50.714Z</time></trkpt><trkpt lat="44.8261724" lon="8.6816791"><ele>121.99999999999999</ele><time>2026-04-17T15:55:52.714Z</time></trkpt><trkpt lat="44.8261206" lon="8.6816103"><ele>121.99999999999999</ele><time>2026-04-17T15:55:53.714Z</time></trkpt><trkpt lat="44.8260516" lon="8.6815762"><ele>122.0</ele><time>2026-04-17T15:55:54.714Z</time></trkpt><trkpt lat="44.8259601" lon="8.681564"><ele>122.0</ele><time>2026-04-17T15:55:55.714Z</time></trkpt><trkpt lat="44.8258597" lon="8.6815344"><ele>121.8</ele><time>2026-04-17T15:55:56.714Z</time></trkpt><trkpt lat="44.8257725" lon="8.6814939"><ele>121.6</ele><time>2026-04-17T15:55:57.714Z</time></trkpt><trkpt lat="44.825688" lon="8.6814348"><ele>121.39999999999999</ele><time>2026-04-17T15:55:58.713Z</time></trkpt><trkpt lat="44.8255994" lon="8.6813681"><ele>121.19999999999999</ele><time>2026-04-17T15:55:59.713Z</time></trkpt><trkpt lat="44.8254909" lon="8.6812813"><ele>121.0</ele><time>2026-04-17T15:56:00.714Z</time></trkpt><trkpt lat="44.8253701" lon="8.6811842"><ele>121.33333333333334</ele><time>2026-04-17T15:56:01.714Z</time></trkpt><trkpt lat="44.8252502" lon="8.6810595"><ele>121.66666666666666</ele><time>2026-04-17T15:56:02.714Z</time></trkpt><trkpt lat="44.8251179" lon="8.6809232"><ele>122.0</ele><time>2026-04-17T15:56:03.714Z</time></trkpt><trkpt lat="44.8249835" lon="8.6808044"><ele>122.5</ele><time>2026-04-17T15:56:04.714Z</time></trkpt><trkpt lat="44.824855" lon="8.6807141"><ele>123.0</ele><time>2026-04-17T15:56:05.713Z</time></trkpt><trkpt lat="44.824727" lon="8.6806353"><ele>123.5</ele><time>2026-04-17T15:56:06.713Z</time></trkpt><trkpt lat="44.824601" lon="8.680583"><ele>124.0</ele><time>2026-04-17T15:56:07.714Z</time></trkpt><trkpt lat="44.824468" lon="8.6805354"><ele>124.0</ele><time>2026-04-17T15:56:08.713Z</time></trkpt><trkpt lat="44.8243361" lon="8.6804877"><ele>124.0</ele><time>2026-04-17T15:56:09.714Z</time></trkpt><trkpt lat="44.8242077" lon="8.6804456"><ele>124.0</ele><time>2026-04-17T15:56:10.714Z</time></trkpt><trkpt lat="44.8240875" lon="8.6804204"><ele>124.0</ele><time>2026-04-17T15:56:11.714Z</time></trkpt><trkpt lat="44.8239862" lon="8.6803783"><ele>124.16666666666667</ele><time>2026-04-17T15:56:12.714Z</time></trkpt><trkpt lat="44.8239047" lon="8.6803557"><ele>124.33333333333334</ele><time>2026-04-17T15:56:13.714Z</time></trkpt><trkpt lat="44.823828" lon="8.6803248"><ele>124.5</ele><time>2026-04-17T15:56:15.714Z</time></trkpt><trkpt lat="44.8237301" lon="8.6803027"><ele>124.66666666666666</ele><time>2026-04-17T15:56:35.714Z</time></trkpt><trkpt lat="44.823642" lon="8.6802805"><ele>124.83333333333333</ele><time>2026-04-17T15:56:36.713Z</time></trkpt><trkpt lat="44.8235616" lon="8.6802248"><ele>125.0</ele><time>2026-04-17T15:56:37.714Z</time></trkpt><trkpt lat="44.8234507" lon="8.6801893"><ele>124.5</ele><time>2026-04-17T15:56:38.714Z</time></trkpt><trkpt lat="44.8233282" lon="8.6801756"><ele>124.0</ele><time>2026-04-17T15:56:39.713Z</time></trkpt><trkpt lat="44.823194" lon="8.6801676"><ele>123.5</ele><time>2026-04-17T15:56:40.714Z</time></trkpt><trkpt lat="44.8230475" lon="8.6801747"><ele>123.0</ele><time>2026-04-17T15:56:41.714Z</time></trkpt><trkpt lat="44.8228981" lon="8.6801977"><ele>123.0</ele><time>2026-04-17T15:56:42.714Z</time></trkpt><trkpt lat="44.8227474" lon="8.6802388"><ele>123.0</ele><time>2026-04-17T15:56:43.714Z</time></trkpt><trkpt lat="44.8225892" lon="8.6803048"><ele>123.0</ele><time>2026-04-17T15:56:44.714Z</time></trkpt><trkpt lat="44.8224267" lon="8.6803927"><ele>123.0</ele><time>2026-04-17T15:56:45.714Z</time></trkpt><trkpt lat="44.8222651" lon="8.6804917"><ele>123.0</ele><time>2026-04-17T15:56:46.714Z</time></trkpt><trkpt lat="44.8221098" lon="8.6806006"><ele>123.0</ele><time>2026-04-17T15:56:47.714Z</time></trkpt><trkpt lat="44.8219662" lon="8.6806927"><ele>123.0</ele><time>2026-04-17T15:56:48.714Z</time></trkpt><trkpt lat="44.8218289" lon="8.6807944"><ele>123.0</ele><time>2026-04-17T15:56:49.714Z</time></trkpt><trkpt lat="44.8216856" lon="8.6808909"><ele>123.0</ele><time>2026-04-17T15:56:50.714Z</time></trkpt><trkpt lat="44.8215406" lon="8.6809981"><ele>122.33333333333334</ele><time>2026-04-17T15:56:51.714Z</time></trkpt><trkpt lat="44.8213892" lon="8.6810971"><ele>121.66666666666667</ele><time>2026-04-17T15:56:52.713Z</time></trkpt><trkpt lat="44.8212405" lon="8.6811911"><ele>121.0</ele><time>2026-04-17T15:56:53.714Z</time></trkpt><trkpt lat="44.8210827" lon="8.6812895"><ele>121.33333333333334</ele><time>2026-04-17T15:56:54.714Z</time></trkpt><trkpt lat="44.8209273" lon="8.6813864"><ele>121.66666666666666</ele><time>2026-04-17T15:56:55.714Z</time></trkpt><trkpt lat="44.8207704" lon="8.6814876"><ele>122.0</ele><time>2026-04-17T15:56:56.714Z</time></trkpt><trkpt lat="44.8206111" lon="8.6815785"><ele>122.0</ele><time>2026-04-17T15:56:57.713Z</time></trkpt><trkpt lat="44.8204586" lon="8.6816811"><ele>122.0</ele><time>2026-04-17T15:56:58.713Z</time></trkpt><trkpt lat="44.8203128" lon="8.6817819"><ele>122.0</ele><time>2026-04-17T15:56:59.714Z</time></trkpt><trkpt lat="44.8201695" lon="8.6818747"><ele>122.66666666666666</ele><time>2026-04-17T15:57:00.713Z</time></trkpt><trkpt lat="44.8200178" lon="8.6819904"><ele>123.33333333333334</ele><time>2026-04-17T15:57:01.713Z</time></trkpt><trkpt lat="44.8198691" lon="8.682095"><ele>124.0</ele><time>2026-04-17T15:57:02.713Z</time></trkpt><trkpt lat="44.8197268" lon="8.6821855"><ele>124.0</ele><time>2026-04-17T15:57:03.714Z</time></trkpt><trkpt lat="44.8196001" lon="8.6822749"><ele>124.0</ele><time>2026-04-17T15:57:04.714Z</time></trkpt><trkpt lat="44.8194816" lon="8.682355"><ele>124.0</ele><time>2026-04-17T15:57:05.714Z</time></trkpt><trkpt lat="44.819383" lon="8.6824182"><ele>124.0</ele><time>2026-04-17T15:57:06.714Z</time></trkpt><trkpt lat="44.8192844" lon="8.6824872"><ele>124.0</ele><time>2026-04-17T15:57:07.713Z</time></trkpt><trkpt lat="44.8191924" lon="8.6825558"><ele>124.0</ele><time>2026-04-17T15:57:08.714Z</time></trkpt><trkpt lat="44.8190995" lon="8.6826433"><ele>124.0</ele><time>2026-04-17T15:57:09.714Z</time></trkpt><trkpt lat="44.8190099" lon="8.6827284"><ele>124.0</ele><time>2026-04-17T15:57:10.714Z</time></trkpt><trkpt lat="44.8189071" lon="8.6828086"><ele>124.0</ele><time>2026-04-17T15:57:11.714Z</time></trkpt><trkpt lat="44.8187906" lon="8.6829004"><ele>124.33333333333334</ele><time>2026-04-17T15:57:12.714Z</time></trkpt><trkpt lat="44.8186657" lon="8.6830034"><ele>124.66666666666666</ele><time>2026-04-17T15:57:13.714Z</time></trkpt><trkpt lat="44.8185297" lon="8.6831125"><ele>125.0</ele><time>2026-04-17T15:57:14.714Z</time></trkpt><trkpt lat="44.8183911" lon="8.6832362"><ele>125.0</ele><time>2026-04-17T15:57:15.714Z</time></trkpt><trkpt lat="44.8182451" lon="8.6833694"><ele>125.0</ele><time>2026-04-17T15:57:16.714Z</time></trkpt><trkpt lat="44.8181049" lon="8.6835204"><ele>125.0</ele><time>2026-04-17T15:57:17.714Z</time></trkpt><trkpt lat="44.817961" lon="8.6836675"><ele>124.66666666666666</ele><time>2026-04-17T15:57:18.714Z</time></trkpt><trkpt lat="44.8178172" lon="8.6838174"><ele>124.33333333333334</ele><time>2026-04-17T15:57:19.714Z</time></trkpt><trkpt lat="44.8176678" lon="8.6839869"><ele>124.0</ele><time>2026-04-17T15:57:20.714Z</time></trkpt><trkpt lat="44.8175081" lon="8.6841563"><ele>124.66666666666667</ele><time>2026-04-17T15:57:21.714Z</time></trkpt><trkpt lat="44.8173474" lon="8.6843313"><ele>125.33333333333334</ele><time>2026-04-17T15:57:22.714Z</time></trkpt><trkpt lat="44.8172004" lon="8.6845029"><ele>126.0</ele><time>2026-04-17T15:57:23.714Z</time></trkpt><trkpt lat="44.8170603" lon="8.6846651"><ele>126.0</ele><time>2026-04-17T15:57:24.714Z</time></trkpt><trkpt lat="44.8169138" lon="8.6848211"><ele>126.0</ele><time>2026-04-17T15:57:25.714Z</time></trkpt><trkpt lat="44.816769" lon="8.6849547"><ele>126.0</ele><time>2026-04-17T15:57:26.714Z</time></trkpt><trkpt lat="44.8166222" lon="8.685099"><ele>126.33333333333334</ele><time>2026-04-17T15:57:27.714Z</time></trkpt><trkpt lat="44.8164709" lon="8.6852681"><ele>126.66666666666667</ele><time>2026-04-17T15:57:28.714Z</time></trkpt><trkpt lat="44.8163222" lon="8.685419"><ele>127.0</ele><time>2026-04-17T15:57:29.714Z</time></trkpt><trkpt lat="44.8161827" lon="8.6855659"><ele>127.0</ele><time>2026-04-17T15:57:30.713Z</time></trkpt><trkpt lat="44.8160454" lon="8.685703"><ele>127.0</ele><time>2026-04-17T15:57:31.714Z</time></trkpt><trkpt lat="44.8159024" lon="8.6858409"><ele>127.0</ele><time>2026-04-17T15:57:32.714Z</time></trkpt><trkpt lat="44.8157603" lon="8.6859836"><ele>126.66666666666667</ele><time>2026-04-17T15:57:33.714Z</time></trkpt><trkpt lat="44.8156154" lon="8.6861122"><ele>126.33333333333334</ele><time>2026-04-17T15:57:34.714Z</time></trkpt><trkpt lat="44.815467" lon="8.6862368"><ele>126.0</ele><time>2026-04-17T15:57:35.714Z</time></trkpt><trkpt lat="44.8153112" lon="8.6863485"><ele>125.33333333333334</ele><time>2026-04-17T15:57:36.714Z</time></trkpt><trkpt lat="44.815148" lon="8.6864334"><ele>124.66666666666667</ele><time>2026-04-17T15:57:37.714Z</time></trkpt><trkpt lat="44.814972" lon="8.6865051"><ele>124.0</ele><time>2026-04-17T15:57:38.713Z</time></trkpt><trkpt lat="44.8147976" lon="8.6865755"><ele>124.0</ele><time>2026-04-17T15:57:39.713Z</time></trkpt><trkpt lat="44.8146179" lon="8.6866431"><ele>124.0</ele><time>2026-04-17T15:57:40.714Z</time></trkpt><trkpt lat="44.8144444" lon="8.6867135"><ele>124.0</ele><time>2026-04-17T15:57:41.714Z</time></trkpt><trkpt lat="44.8142628" lon="8.6867857"><ele>124.66666666666667</ele><time>2026-04-17T15:57:42.714Z</time></trkpt><trkpt lat="44.8140909" lon="8.6868624"><ele>125.33333333333334</ele><time>2026-04-17T15:57:43.713Z</time></trkpt><trkpt lat="44.8139175" lon="8.6869518"><ele>126.0</ele><time>2026-04-17T15:57:44.714Z</time></trkpt><trkpt lat="44.813743" lon="8.6870649"><ele>126.0</ele><time>2026-04-17T15:57:45.714Z</time></trkpt><trkpt lat="44.8135699" lon="8.6871818"><ele>126.0</ele><time>2026-04-17T15:57:46.713Z</time></trkpt><trkpt lat="44.813403" lon="8.6873125"><ele>126.0</ele><time>2026-04-17T15:57:47.714Z</time></trkpt><trkpt lat="44.813234" lon="8.6874561"><ele>126.33333333333334</ele><time>2026-04-17T15:57:48.714Z</time></trkpt><trkpt lat="44.8130662" lon="8.6876071"><ele>126.66666666666667</ele><time>2026-04-17T15:57:49.714Z</time></trkpt><trkpt lat="44.8129062" lon="8.6877645"><ele>127.0</ele><time>2026-04-17T15:57:50.714Z</time></trkpt><trkpt lat="44.8127462" lon="8.6879185"><ele>127.0</ele><time>2026-04-17T15:57:51.714Z</time></trkpt><trkpt lat="44.812582" lon="8.6880662"><ele>127.0</ele><time>2026-04-17T15:57:52.714Z</time></trkpt><trkpt lat="44.8124227" lon="8.6882178"><ele>127.0</ele><time>2026-04-17T15:57:53.713Z</time></trkpt><trkpt lat="44.8122573" lon="8.688361"><ele>127.0</ele><time>2026-04-17T15:57:54.714Z</time></trkpt><trkpt lat="44.812095" lon="8.6885114"><ele>127.0</ele><time>2026-04-17T15:57:55.714Z</time></trkpt><trkpt lat="44.8119299" lon="8.6886596"><ele>127.0</ele><time>2026-04-17T15:57:56.714Z</time></trkpt><trkpt lat="44.811768" lon="8.6888114"><ele>127.66666666666667</ele><time>2026-04-17T15:57:57.714Z</time></trkpt><trkpt lat="44.8116006" lon="8.6889696"><ele>128.33333333333334</ele><time>2026-04-17T15:57:58.714Z</time></trkpt><trkpt lat="44.8114358" lon="8.6891447"><ele>129.0</ele><time>2026-04-17T15:57:59.714Z</time></trkpt><trkpt lat="44.811282" lon="8.6893136"><ele>129.0</ele><time>2026-04-17T15:58:00.714Z</time></trkpt><trkpt lat="44.8111292" lon="8.689489"><ele>129.0</ele><time>2026-04-17T15:58:01.714Z</time></trkpt><trkpt lat="44.8109689" lon="8.6896736"><ele>129.0</ele><time>2026-04-17T15:58:02.714Z</time></trkpt><trkpt lat="44.8108031" lon="8.6898517"><ele>128.66666666666666</ele><time>2026-04-17T15:58:03.713Z</time></trkpt><trkpt lat="44.8106488" lon="8.6900252"><ele>128.33333333333331</ele><time>2026-04-17T15:58:04.713Z</time></trkpt><trkpt lat="44.8104812" lon="8.6902085"><ele>128.0</ele><time>2026-04-17T15:58:05.714Z</time></trkpt><trkpt lat="44.8103189" lon="8.6903952"><ele>128.66666666666666</ele><time>2026-04-17T15:58:06.713Z</time></trkpt><trkpt lat="44.8101588" lon="8.690576"><ele>129.33333333333334</ele><time>2026-04-17T15:58:07.713Z</time></trkpt><trkpt lat="44.8099995" lon="8.6907521"><ele>130.0</ele><time>2026-04-17T15:58:08.713Z</time></trkpt><trkpt lat="44.8098292" lon="8.6909118"><ele>130.0</ele><time>2026-04-17T15:58:09.713Z</time></trkpt><trkpt lat="44.8096514" lon="8.691064"><ele>130.0</ele><time>2026-04-17T15:58:10.713Z</time></trkpt><trkpt lat="44.8094661" lon="8.6911801"><ele>130.0</ele><time>2026-04-17T15:58:11.714Z</time></trkpt><trkpt lat="44.8092672" lon="8.6912786"><ele>130.66666666666669</ele><time>2026-04-17T15:58:12.714Z</time></trkpt><trkpt lat="44.8090736" lon="8.691352"><ele>131.33333333333334</ele><time>2026-04-17T15:58:13.714Z</time></trkpt><trkpt lat="44.8088753" lon="8.691414"><ele>132.0</ele><time>2026-04-17T15:58:14.714Z</time></trkpt><trkpt lat="44.8086739" lon="8.6914791"><ele>131.66666666666666</ele><time>2026-04-17T15:58:15.714Z</time></trkpt><trkpt lat="44.8084765" lon="8.6915442"><ele>131.33333333333331</ele><time>2026-04-17T15:58:16.714Z</time></trkpt><trkpt lat="44.8082727" lon="8.6916106"><ele>131.0</ele><time>2026-04-17T15:58:17.714Z</time></trkpt><trkpt lat="44.8080676" lon="8.6916802"><ele>131.0</ele><time>2026-04-17T15:58:18.714Z</time></trkpt><trkpt lat="44.8078611" lon="8.6917431"><ele>131.0</ele><time>2026-04-17T15:58:19.714Z</time></trkpt><trkpt lat="44.8076612" lon="8.6918042"><ele>131.0</ele><time>2026-04-17T15:58:20.714Z</time></trkpt><trkpt lat="44.8074569" lon="8.691851"><ele>131.33333333333331</ele><time>2026-04-17T15:58:21.713Z</time></trkpt><trkpt lat="44.8072501" lon="8.6918833"><ele>131.66666666666666</ele><time>2026-04-17T15:58:22.714Z</time></trkpt><trkpt lat="44.8070441" lon="8.6918906"><ele>132.0</ele><time>2026-04-17T15:58:23.713Z</time></trkpt><trkpt lat="44.8068375" lon="8.6918613"><ele>132.33333333333334</ele><time>2026-04-17T15:58:24.714Z</time></trkpt><trkpt lat="44.806631" lon="8.6918107"><ele>132.66666666666669</ele><time>2026-04-17T15:58:25.714Z</time></trkpt><trkpt lat="44.8064399" lon="8.6917399"><ele>133.0</ele><time>2026-04-17T15:58:26.714Z</time></trkpt><trkpt lat="44.8062418" lon="8.6916434"><ele>133.0</ele><time>2026-04-17T15:58:27.714Z</time></trkpt><trkpt lat="44.8060506" lon="8.6915423"><ele>133.0</ele><time>2026-04-17T15:58:28.713Z</time></trkpt><trkpt lat="44.8058593" lon="8.6914471"><ele>133.0</ele><time>2026-04-17T15:58:29.714Z</time></trkpt><trkpt lat="44.8056589" lon="8.6913674"><ele>133.0</ele><time>2026-04-17T15:58:30.714Z</time></trkpt><trkpt lat="44.805454" lon="8.6912894"><ele>133.0</ele><time>2026-04-17T15:58:31.714Z</time></trkpt><trkpt lat="44.805253" lon="8.691218"><ele>133.0</ele><time>2026-04-17T15:58:32.714Z</time></trkpt><trkpt lat="44.8050486" lon="8.6911394"><ele>133.0</ele><time>2026-04-17T15:58:33.714Z</time></trkpt><trkpt lat="44.8048381" lon="8.6910526"><ele>133.0</ele><time>2026-04-17T15:58:34.714Z</time></trkpt><trkpt lat="44.8046346" lon="8.6909784"><ele>133.0</ele><time>2026-04-17T15:58:35.714Z</time></trkpt><trkpt lat="44.8044341" lon="8.6908973"><ele>132.66666666666669</ele><time>2026-04-17T15:58:36.714Z</time></trkpt><trkpt lat="44.8042226" lon="8.6908334"><ele>132.33333333333334</ele><time>2026-04-17T15:58:37.714Z</time></trkpt><trkpt lat="44.8040063" lon="8.690765"><ele>132.0</ele><time>2026-04-17T15:58:38.714Z</time></trkpt><trkpt lat="44.8037906" lon="8.6906966"><ele>132.0</ele><time>2026-04-17T15:58:39.714Z</time></trkpt><trkpt lat="44.8035753" lon="8.6906183"><ele>132.0</ele><time>2026-04-17T15:58:40.714Z</time></trkpt><trkpt lat="44.8033556" lon="8.6905497"><ele>132.0</ele><time>2026-04-17T15:58:41.713Z</time></trkpt><trkpt lat="44.8031468" lon="8.6904757"><ele>132.0</ele><time>2026-04-17T15:58:42.714Z</time></trkpt><trkpt lat="44.8029285" lon="8.6903966"><ele>132.0</ele><time>2026-04-17T15:58:43.714Z</time></trkpt><trkpt lat="44.8027116" lon="8.6903158"><ele>132.0</ele><time>2026-04-17T15:58:44.714Z</time></trkpt><trkpt lat="44.8024905" lon="8.6902413"><ele>132.0</ele><time>2026-04-17T15:58:45.714Z</time></trkpt><trkpt lat="44.802273" lon="8.6901756"><ele>132.0</ele><time>2026-04-17T15:58:46.714Z</time></trkpt><trkpt lat="44.8020549" lon="8.6901021"><ele>132.0</ele><time>2026-04-17T15:58:47.714Z</time></trkpt><trkpt lat="44.8018366" lon="8.6900189"><ele>132.0</ele><time>2026-04-17T15:58:48.714Z</time></trkpt><trkpt lat="44.8016187" lon="8.6899377"><ele>132.0</ele><time>2026-04-17T15:58:49.714Z</time></trkpt><trkpt lat="44.8014032" lon="8.689864"><ele>132.0</ele><time>2026-04-17T15:58:50.714Z</time></trkpt><trkpt lat="44.801191" lon="8.689792"><ele>132.33333333333334</ele><time>2026-04-17T15:58:51.713Z</time></trkpt><trkpt lat="44.8009821" lon="8.689726"><ele>132.66666666666669</ele><time>2026-04-17T15:58:52.714Z</time></trkpt><trkpt lat="44.8007757" lon="8.6896539"><ele>133.0</ele><time>2026-04-17T15:58:53.714Z</time></trkpt><trkpt lat="44.8005621" lon="8.6895865"><ele>133.0</ele><time>2026-04-17T15:58:54.714Z</time></trkpt><trkpt lat="44.8003531" lon="8.689509"><ele>133.0</ele><time>2026-04-17T15:58:55.714Z</time></trkpt><trkpt lat="44.8001474" lon="8.6894401"><ele>133.0</ele><time>2026-04-17T15:58:56.714Z</time></trkpt><trkpt lat="44.7999367" lon="8.6893717"><ele>133.0</ele><time>2026-04-17T15:58:57.714Z</time></trkpt><trkpt lat="44.7997253" lon="8.6893047"><ele>133.0</ele><time>2026-04-17T15:58:58.714Z</time></trkpt><trkpt lat="44.7995151" lon="8.6892325"><ele>133.0</ele><time>2026-04-17T15:58:59.714Z</time></trkpt><trkpt lat="44.7993062" lon="8.6891549"><ele>133.0</ele><time>2026-04-17T15:59:00.714Z</time></trkpt><trkpt lat="44.799099" lon="8.6890851"><ele>133.0</ele><time>2026-04-17T15:59:01.714Z</time></trkpt><trkpt lat="44.7988836" lon="8.6890094"><ele>133.0</ele><time>2026-04-17T15:59:02.713Z</time></trkpt><trkpt lat="44.7986614" lon="8.6889357"><ele>133.33333333333334</ele><time>2026-04-17T15:59:03.714Z</time></trkpt><trkpt lat="44.7984451" lon="8.6888636"><ele>133.66666666666666</ele><time>2026-04-17T15:59:04.714Z</time></trkpt><trkpt lat="44.7982283" lon="8.6887877"><ele>134.0</ele><time>2026-04-17T15:59:05.714Z</time></trkpt><trkpt lat="44.7980099" lon="8.6887222"><ele>134.0</ele><time>2026-04-17T15:59:06.714Z</time></trkpt><trkpt lat="44.7977872" lon="8.6886459"><ele>134.0</ele><time>2026-04-17T15:59:07.714Z</time></trkpt><trkpt lat="44.7975678" lon="8.6885757"><ele>134.5</ele><time>2026-04-17T15:59:08.714Z</time></trkpt><trkpt lat="44.7973449" lon="8.688507"><ele>135.0</ele><time>2026-04-17T15:59:09.713Z</time></trkpt><trkpt lat="44.7971202" lon="8.68844"><ele>135.0</ele><time>2026-04-17T15:59:10.714Z</time></trkpt><trkpt lat="44.7968911" lon="8.6883668"><ele>135.0</ele><time>2026-04-17T15:59:11.714Z</time></trkpt><trkpt lat="44.7966637" lon="8.6882905"><ele>134.66666666666666</ele><time>2026-04-17T15:59:12.713Z</time></trkpt><trkpt lat="44.7964496" lon="8.6882139"><ele>134.33333333333331</ele><time>2026-04-17T15:59:13.713Z</time></trkpt><trkpt lat="44.7962356" lon="8.6881427"><ele>134.0</ele><time>2026-04-17T15:59:14.714Z</time></trkpt><trkpt lat="44.7960153" lon="8.688073"><ele>135.0</ele><time>2026-04-17T15:59:15.714Z</time></trkpt><trkpt lat="44.7957923" lon="8.6880017"><ele>136.0</ele><time>2026-04-17T15:59:16.714Z</time></trkpt><trkpt lat="44.7955758" lon="8.6879336"><ele>136.0</ele><time>2026-04-17T15:59:17.713Z</time></trkpt><trkpt lat="44.79536" lon="8.6878628"><ele>136.0</ele><time>2026-04-17T15:59:18.714Z</time></trkpt><trkpt lat="44.7951518" lon="8.6877918"><ele>136.0</ele><time>2026-04-17T15:59:19.714Z</time></trkpt><trkpt lat="44.7949552" lon="8.6877236"><ele>135.0</ele><time>2026-04-17T15:59:20.714Z</time></trkpt><trkpt lat="44.7947653" lon="8.6876543"><ele>134.0</ele><time>2026-04-17T15:59:21.714Z</time></trkpt><trkpt lat="44.7945671" lon="8.687619"><ele>133.0</ele><time>2026-04-17T15:59:22.714Z</time></trkpt><trkpt lat="44.7943581" lon="8.6876003"><ele>131.33333333333334</ele><time>2026-04-17T15:59:23.714Z</time></trkpt><trkpt lat="44.7941443" lon="8.6876161"><ele>129.66666666666666</ele><time>2026-04-17T15:59:24.714Z</time></trkpt><trkpt lat="44.793919" lon="8.6876546"><ele>128.0</ele><time>2026-04-17T15:59:25.713Z</time></trkpt><trkpt lat="44.7936813" lon="8.6876986"><ele>126.5</ele><time>2026-04-17T15:59:26.713Z</time></trkpt><trkpt lat="44.7934436" lon="8.6877451"><ele>125.0</ele><time>2026-04-17T15:59:27.713Z</time></trkpt><trkpt lat="44.7931966" lon="8.6877754"><ele>124.5</ele><time>2026-04-17T15:59:28.714Z</time></trkpt><trkpt lat="44.7929536" lon="8.6878111"><ele>124.0</ele><time>2026-04-17T15:59:29.714Z</time></trkpt><trkpt lat="44.792718" lon="8.6878506"><ele>124.5</ele><time>2026-04-17T15:59:30.714Z</time></trkpt><trkpt lat="44.792494" lon="8.68789"><ele>125.0</ele><time>2026-04-17T15:59:31.714Z</time></trkpt><trkpt lat="44.7922667" lon="8.6879243"><ele>125.0</ele><time>2026-04-17T15:59:32.713Z</time></trkpt><trkpt lat="44.7920469" lon="8.6879591"><ele>125.0</ele><time>2026-04-17T15:59:33.714Z</time></trkpt><trkpt lat="44.7918313" lon="8.6879955"><ele>125.0</ele><time>2026-04-17T15:59:34.714Z</time></trkpt><trkpt lat="44.7916281" lon="8.6880332"><ele>125.33333333333333</ele><time>2026-04-17T15:59:35.714Z</time></trkpt><trkpt lat="44.7914319" lon="8.6880377"><ele>125.66666666666666</ele><time>2026-04-17T15:59:36.714Z</time></trkpt><trkpt lat="44.791251" lon="8.6879848"><ele>126.0</ele><time>2026-04-17T15:59:37.714Z</time></trkpt><trkpt lat="44.7910655" lon="8.6879118"><ele>128.66666666666666</ele><time>2026-04-17T15:59:38.713Z</time></trkpt><trkpt lat="44.7908894" lon="8.6878491"><ele>131.33333333333331</ele><time>2026-04-17T15:59:39.714Z</time></trkpt><trkpt lat="44.7907397" lon="8.6878179"><ele>134.0</ele><time>2026-04-17T15:59:40.714Z</time></trkpt><trkpt lat="44.7906015" lon="8.6878297"><ele>134.0</ele><time>2026-04-17T15:59:41.713Z</time></trkpt><trkpt lat="44.790467" lon="8.687905"><ele>134.0</ele><time>2026-04-17T15:59:42.714Z</time></trkpt><trkpt lat="44.7903257" lon="8.6880097"><ele>134.0</ele><time>2026-04-17T15:59:43.713Z</time></trkpt><trkpt lat="44.7901742" lon="8.6881177"><ele>134.66666666666666</ele><time>2026-04-17T15:59:44.714Z</time></trkpt><trkpt lat="44.7900146" lon="8.6882176"><ele>135.33333333333334</ele><time>2026-04-17T15:59:45.713Z</time></trkpt><trkpt lat="44.7898565" lon="8.6883168"><ele>136.0</ele><time>2026-04-17T15:59:46.714Z</time></trkpt><trkpt lat="44.7896816" lon="8.688416"><ele>136.0</ele><time>2026-04-17T15:59:47.714Z</time></trkpt><trkpt lat="44.789503" lon="8.6885213"><ele>136.0</ele><time>2026-04-17T15:59:48.713Z</time></trkpt><trkpt lat="44.7893256" lon="8.6886281"><ele>136.0</ele><time>2026-04-17T15:59:49.713Z</time></trkpt><trkpt lat="44.7891534" lon="8.6887379"><ele>137.66666666666669</ele><time>2026-04-17T15:59:50.714Z</time></trkpt><trkpt lat="44.7889823" lon="8.6888475"><ele>139.33333333333334</ele><time>2026-04-17T15:59:51.713Z</time></trkpt><trkpt lat="44.7888101" lon="8.6889516"><ele>141.0</ele><time>2026-04-17T15:59:52.714Z</time></trkpt><trkpt lat="44.7886404" lon="8.6890617"><ele>140.33333333333334</ele><time>2026-04-17T15:59:53.714Z</time></trkpt><trkpt lat="44.7884688" lon="8.6891648"><ele>139.66666666666669</ele><time>2026-04-17T15:59:54.714Z</time></trkpt><trkpt lat="44.788297" lon="8.6892667"><ele>139.0</ele><time>2026-04-17T15:59:55.713Z</time></trkpt><trkpt lat="44.7881217" lon="8.6893546"><ele>139.0</ele><time>2026-04-17T15:59:56.714Z</time></trkpt><trkpt lat="44.7879447" lon="8.6894382"><ele>139.0</ele><time>2026-04-17T15:59:57.713Z</time></trkpt><trkpt lat="44.7877649" lon="8.6895237"><ele>139.0</ele><time>2026-04-17T15:59:58.714Z</time></trkpt><trkpt lat="44.787591" lon="8.6896022"><ele>139.0</ele><time>2026-04-17T15:59:59.714Z</time></trkpt><trkpt lat="44.7874214" lon="8.6896751"><ele>139.0</ele><time>2026-04-17T16:00:00.714Z</time></trkpt><trkpt lat="44.7872457" lon="8.6897309"><ele>139.0</ele><time>2026-04-17T16:00:01.714Z</time></trkpt><trkpt lat="44.7870673" lon="8.6897728"><ele>139.0</ele><time>2026-04-17T16:00:02.713Z</time></trkpt><trkpt lat="44.7868922" lon="8.6898018"><ele>139.0</ele><time>2026-04-17T16:00:03.714Z</time></trkpt><trkpt lat="44.7867307" lon="8.6897966"><ele>139.0</ele><time>2026-04-17T16:00:04.713Z</time></trkpt><trkpt lat="44.7865793" lon="8.6897564"><ele>139.33333333333334</ele><time>2026-04-17T16:00:05.713Z</time></trkpt><trkpt lat="44.7864291" lon="8.6896883"><ele>139.66666666666666</ele><time>2026-04-17T16:00:06.713Z</time></trkpt><trkpt lat="44.7862763" lon="8.6895917"><ele>140.0</ele><time>2026-04-17T16:00:07.712Z</time></trkpt><trkpt lat="44.7861193" lon="8.6894947"><ele>141.0</ele><time>2026-04-17T16:00:08.713Z</time></trkpt><trkpt lat="44.785957" lon="8.6894076"><ele>142.0</ele><time>2026-04-17T16:00:09.712Z</time></trkpt><trkpt lat="44.785797" lon="8.689326"><ele>143.0</ele><time>2026-04-17T16:00:10.713Z</time></trkpt><trkpt lat="44.7856495" lon="8.6892562"><ele>143.0</ele><time>2026-04-17T16:00:11.713Z</time></trkpt><trkpt lat="44.7855117" lon="8.6891877"><ele>143.0</ele><time>2026-04-17T16:00:12.712Z</time></trkpt><trkpt lat="44.7853674" lon="8.6891434"><ele>143.0</ele><time>2026-04-17T16:00:13.713Z</time></trkpt><trkpt lat="44.7852204" lon="8.689116"><ele>143.0</ele><time>2026-04-17T16:00:14.713Z</time></trkpt><trkpt lat="44.7850881" lon="8.6891181"><ele>143.25</ele><time>2026-04-17T16:00:15.713Z</time></trkpt><trkpt lat="44.7849605" lon="8.689148"><ele>143.5</ele><time>2026-04-17T16:00:16.713Z</time></trkpt><trkpt lat="44.7848503" lon="8.6892115"><ele>143.75</ele><time>2026-04-17T16:00:17.713Z</time></trkpt><trkpt lat="44.7847286" lon="8.6892958"><ele>144.0</ele><time>2026-04-17T16:00:18.713Z</time></trkpt><trkpt lat="44.7845972" lon="8.689403"><ele>144.0</ele><time>2026-04-17T16:00:19.713Z</time></trkpt><trkpt lat="44.7844638" lon="8.6894957"><ele>144.0</ele><time>2026-04-17T16:00:20.713Z</time></trkpt><trkpt lat="44.7843365" lon="8.68957"><ele>144.0</ele><time>2026-04-17T16:00:21.713Z</time></trkpt><trkpt lat="44.7842065" lon="8.6896331"><ele>144.0</ele><time>2026-04-17T16:00:22.713Z</time></trkpt><trkpt lat="44.7840862" lon="8.6896658"><ele>144.5</ele><time>2026-04-17T16:00:23.713Z</time></trkpt><trkpt lat="44.7839405" lon="8.6896598"><ele>145.0</ele><time>2026-04-17T16:00:24.713Z</time></trkpt><trkpt lat="44.7837938" lon="8.6896572"><ele>145.5</ele><time>2026-04-17T16:00:25.713Z</time></trkpt><trkpt lat="44.7836476" lon="8.6896585"><ele>146.0</ele><time>2026-04-17T16:00:26.713Z</time></trkpt><trkpt lat="44.7835189" lon="8.6896805"><ele>145.25</ele><time>2026-04-17T16:00:27.712Z</time></trkpt><trkpt lat="44.7833932" lon="8.6897309"><ele>144.5</ele><time>2026-04-17T16:00:28.712Z</time></trkpt><trkpt lat="44.783276" lon="8.6897959"><ele>143.75</ele><time>2026-04-17T16:00:29.713Z</time></trkpt><trkpt lat="44.7831456" lon="8.6898714"><ele>143.0</ele><time>2026-04-17T16:00:30.713Z</time></trkpt><trkpt lat="44.7830095" lon="8.6899335"><ele>143.0</ele><time>2026-04-17T16:00:31.712Z</time></trkpt><trkpt lat="44.7828606" lon="8.6899945"><ele>143.0</ele><time>2026-04-17T16:00:32.713Z</time></trkpt><trkpt lat="44.7827158" lon="8.6900522"><ele>143.0</ele><time>2026-04-17T16:00:33.713Z</time></trkpt><trkpt lat="44.7825778" lon="8.6901187"><ele>143.66666666666666</ele><time>2026-04-17T16:00:34.713Z</time></trkpt><trkpt lat="44.7824313" lon="8.6901872"><ele>144.33333333333334</ele><time>2026-04-17T16:00:35.713Z</time></trkpt><trkpt lat="44.7822884" lon="8.6902558"><ele>145.0</ele><time>2026-04-17T16:00:36.713Z</time></trkpt><trkpt lat="44.7821362" lon="8.690316"><ele>145.0</ele><time>2026-04-17T16:00:37.713Z</time></trkpt><trkpt lat="44.7819858" lon="8.6903868"><ele>145.0</ele><time>2026-04-17T16:00:38.713Z</time></trkpt><trkpt lat="44.781848" lon="8.6904555"><ele>145.0</ele><time>2026-04-17T16:00:39.713Z</time></trkpt><trkpt lat="44.7817164" lon="8.6905163"><ele>145.0</ele><time>2026-04-17T16:00:40.713Z</time></trkpt><trkpt lat="44.7815954" lon="8.6905916"><ele>145.25</ele><time>2026-04-17T16:00:41.713Z</time></trkpt><trkpt lat="44.7814887" lon="8.6906704"><ele>145.5</ele><time>2026-04-17T16:00:42.713Z</time></trkpt><trkpt lat="44.781409" lon="8.6907779"><ele>145.75</ele><time>2026-04-17T16:00:43.713Z</time></trkpt><trkpt lat="44.7813474" lon="8.6909169"><ele>146.0</ele><time>2026-04-17T16:00:44.713Z</time></trkpt><trkpt lat="44.7812941" lon="8.691066"><ele>145.75</ele><time>2026-04-17T16:00:45.713Z</time></trkpt><trkpt lat="44.7812225" lon="8.6912154"><ele>145.5</ele><time>2026-04-17T16:00:46.712Z</time></trkpt><trkpt lat="44.7811445" lon="8.6913659"><ele>145.25</ele><time>2026-04-17T16:00:47.713Z</time></trkpt><trkpt lat="44.7810669" lon="8.691532"><ele>145.0</ele><time>2026-04-17T16:00:48.713Z</time></trkpt><trkpt lat="44.7809873" lon="8.6916997"><ele>145.0</ele><time>2026-04-17T16:00:49.713Z</time></trkpt><trkpt lat="44.7809055" lon="8.6918731"><ele>145.0</ele><time>2026-04-17T16:00:50.712Z</time></trkpt><trkpt lat="44.7808186" lon="8.6920502"><ele>145.0</ele><time>2026-04-17T16:00:51.713Z</time></trkpt><trkpt lat="44.7807327" lon="8.6922408"><ele>145.0</ele><time>2026-04-17T16:00:52.713Z</time></trkpt><trkpt lat="44.7806472" lon="8.6924402"><ele>145.0</ele><time>2026-04-17T16:00:53.713Z</time></trkpt><trkpt lat="44.7805508" lon="8.6926415"><ele>145.0</ele><time>2026-04-17T16:00:54.713Z</time></trkpt><trkpt lat="44.7804497" lon="8.6928421"><ele>145.0</ele><time>2026-04-17T16:00:55.713Z</time></trkpt><trkpt lat="44.7803476" lon="8.6930464"><ele>145.0</ele><time>2026-04-17T16:00:56.713Z</time></trkpt><trkpt lat="44.7802304" lon="8.6932407"><ele>145.0</ele><time>2026-04-17T16:00:57.712Z</time></trkpt><trkpt lat="44.7800829" lon="8.6934235"><ele>145.0</ele><time>2026-04-17T16:00:58.713Z</time></trkpt><trkpt lat="44.7799272" lon="8.6935827"><ele>145.0</ele><time>2026-04-17T16:00:59.713Z</time></trkpt><trkpt lat="44.779772" lon="8.693733"><ele>145.0</ele><time>2026-04-17T16:01:00.713Z</time></trkpt><trkpt lat="44.7796045" lon="8.693873"><ele>145.0</ele><time>2026-04-17T16:01:01.713Z</time></trkpt><trkpt lat="44.7794354" lon="8.6940101"><ele>145.0</ele><time>2026-04-17T16:01:02.713Z</time></trkpt><trkpt lat="44.779271" lon="8.694149"><ele>145.0</ele><time>2026-04-17T16:01:03.713Z</time></trkpt><trkpt lat="44.779111" lon="8.6942882"><ele>145.66666666666669</ele><time>2026-04-17T16:01:04.713Z</time></trkpt><trkpt lat="44.7789479" lon="8.6944162"><ele>146.33333333333334</ele><time>2026-04-17T16:01:05.713Z</time></trkpt><trkpt lat="44.778777" lon="8.6945186"><ele>147.0</ele><time>2026-04-17T16:01:06.713Z</time></trkpt><trkpt lat="44.7786066" lon="8.6946011"><ele>146.66666666666666</ele><time>2026-04-17T16:01:07.713Z</time></trkpt><trkpt lat="44.7784277" lon="8.6946625"><ele>146.33333333333331</ele><time>2026-04-17T16:01:08.713Z</time></trkpt><trkpt lat="44.7782484" lon="8.6947223"><ele>146.0</ele><time>2026-04-17T16:01:09.713Z</time></trkpt><trkpt lat="44.7780709" lon="8.6947775"><ele>146.0</ele><time>2026-04-17T16:01:10.713Z</time></trkpt><trkpt lat="44.7778912" lon="8.6948304"><ele>146.0</ele><time>2026-04-17T16:01:11.713Z</time></trkpt><trkpt lat="44.7777066" lon="8.6948978"><ele>146.0</ele><time>2026-04-17T16:01:12.713Z</time></trkpt><trkpt lat="44.7775231" lon="8.6949718"><ele>146.33333333333331</ele><time>2026-04-17T16:01:13.713Z</time></trkpt><trkpt lat="44.7773356" lon="8.6950572"><ele>146.66666666666666</ele><time>2026-04-17T16:01:14.712Z</time></trkpt><trkpt lat="44.777148" lon="8.6951589"><ele>147.0</ele><time>2026-04-17T16:01:15.713Z</time></trkpt><trkpt lat="44.7769583" lon="8.6952543"><ele>147.33333333333334</ele><time>2026-04-17T16:01:16.713Z</time></trkpt><trkpt lat="44.7767684" lon="8.6953452"><ele>147.66666666666669</ele><time>2026-04-17T16:01:17.713Z</time></trkpt><trkpt lat="44.7765864" lon="8.6954307"><ele>148.0</ele><time>2026-04-17T16:01:18.713Z</time></trkpt><trkpt lat="44.7764079" lon="8.6955162"><ele>148.0</ele><time>2026-04-17T16:01:19.713Z</time></trkpt><trkpt lat="44.7762107" lon="8.6955916"><ele>148.0</ele><time>2026-04-17T16:01:20.713Z</time></trkpt><trkpt lat="44.7760255" lon="8.695675"><ele>148.0</ele><time>2026-04-17T16:01:21.713Z</time></trkpt><trkpt lat="44.7758412" lon="8.6957735"><ele>147.66666666666669</ele><time>2026-04-17T16:01:22.712Z</time></trkpt><trkpt lat="44.7756589" lon="8.6958756"><ele>147.33333333333334</ele><time>2026-04-17T16:01:23.712Z</time></trkpt><trkpt lat="44.7754646" lon="8.6959803"><ele>147.0</ele><time>2026-04-17T16:01:24.713Z</time></trkpt><trkpt lat="44.7752713" lon="8.6960875"><ele>146.33333333333334</ele><time>2026-04-17T16:01:25.713Z</time></trkpt><trkpt lat="44.7750766" lon="8.6961857"><ele>145.66666666666669</ele><time>2026-04-17T16:01:26.712Z</time></trkpt><trkpt lat="44.77488" lon="8.6962774"><ele>145.0</ele><time>2026-04-17T16:01:27.713Z</time></trkpt><trkpt lat="44.7746923" lon="8.696378"><ele>145.0</ele><time>2026-04-17T16:01:28.712Z</time></trkpt><trkpt lat="44.7745073" lon="8.6964909"><ele>145.0</ele><time>2026-04-17T16:01:29.713Z</time></trkpt><trkpt lat="44.7743199" lon="8.6966219"><ele>145.0</ele><time>2026-04-17T16:01:30.712Z</time></trkpt><trkpt lat="44.7741396" lon="8.6967504"><ele>145.33333333333334</ele><time>2026-04-17T16:01:31.712Z</time></trkpt><trkpt lat="44.7739555" lon="8.6968786"><ele>145.66666666666666</ele><time>2026-04-17T16:01:32.713Z</time></trkpt><trkpt lat="44.7737671" lon="8.696981"><ele>146.0</ele><time>2026-04-17T16:01:33.713Z</time></trkpt><trkpt lat="44.7735686" lon="8.6970501"><ele>146.0</ele><time>2026-04-17T16:01:34.713Z</time></trkpt><trkpt lat="44.7733667" lon="8.6971042"><ele>146.0</ele><time>2026-04-17T16:01:35.713Z</time></trkpt><trkpt lat="44.773173" lon="8.6971485"><ele>146.0</ele><time>2026-04-17T16:01:36.713Z</time></trkpt><trkpt lat="44.7729811" lon="8.6971939"><ele>146.0</ele><time>2026-04-17T16:01:37.713Z</time></trkpt><trkpt lat="44.7727947" lon="8.6972359"><ele>146.0</ele><time>2026-04-17T16:01:38.713Z</time></trkpt><trkpt lat="44.7726112" lon="8.6972852"><ele>146.0</ele><time>2026-04-17T16:01:39.713Z</time></trkpt><trkpt lat="44.7724208" lon="8.6973275"><ele>145.66666666666666</ele><time>2026-04-17T16:01:40.713Z</time></trkpt><trkpt lat="44.7722336" lon="8.6973854"><ele>145.33333333333334</ele><time>2026-04-17T16:01:41.713Z</time></trkpt><trkpt lat="44.7720571" lon="8.6974648"><ele>145.0</ele><time>2026-04-17T16:01:42.713Z</time></trkpt><trkpt lat="44.7718763" lon="8.697559"><ele>144.66666666666669</ele><time>2026-04-17T16:01:43.713Z</time></trkpt><trkpt lat="44.7716905" lon="8.6976625"><ele>144.33333333333334</ele><time>2026-04-17T16:01:44.713Z</time></trkpt><trkpt lat="44.7715025" lon="8.6977681"><ele>144.0</ele><time>2026-04-17T16:01:45.713Z</time></trkpt><trkpt lat="44.7713198" lon="8.6978769"><ele>144.0</ele><time>2026-04-17T16:01:46.712Z</time></trkpt><trkpt lat="44.7711396" lon="8.6979958"><ele>144.0</ele><time>2026-04-17T16:01:47.712Z</time></trkpt><trkpt lat="44.7709666" lon="8.6981165"><ele>144.0</ele><time>2026-04-17T16:01:48.712Z</time></trkpt><trkpt lat="44.7707981" lon="8.6982483"><ele>144.0</ele><time>2026-04-17T16:01:49.713Z</time></trkpt><trkpt lat="44.7706302" lon="8.6983885"><ele>144.0</ele><time>2026-04-17T16:01:50.713Z</time></trkpt><trkpt lat="44.7704657" lon="8.6985323"><ele>144.0</ele><time>2026-04-17T16:01:51.712Z</time></trkpt><trkpt lat="44.7703178" lon="8.6986826"><ele>144.0</ele><time>2026-04-17T16:01:52.713Z</time></trkpt><trkpt lat="44.7701847" lon="8.6988277"><ele>144.0</ele><time>2026-04-17T16:01:53.712Z</time></trkpt><trkpt lat="44.7700586" lon="8.698975"><ele>144.0</ele><time>2026-04-17T16:01:54.713Z</time></trkpt><trkpt lat="44.7699409" lon="8.6991322"><ele>144.0</ele><time>2026-04-17T16:01:55.712Z</time></trkpt><trkpt lat="44.7698239" lon="8.6993054"><ele>144.0</ele><time>2026-04-17T16:01:56.713Z</time></trkpt><trkpt lat="44.7697229" lon="8.6994698"><ele>144.0</ele><time>2026-04-17T16:01:57.713Z</time></trkpt><trkpt lat="44.7696413" lon="8.6996273"><ele>144.25</ele><time>2026-04-17T16:01:58.713Z</time></trkpt><trkpt lat="44.7695715" lon="8.6997731"><ele>144.5</ele><time>2026-04-17T16:01:59.713Z</time></trkpt><trkpt lat="44.7695164" lon="8.6999176"><ele>144.75</ele><time>2026-04-17T16:02:00.713Z</time></trkpt><trkpt lat="44.7694674" lon="8.7000573"><ele>145.0</ele><time>2026-04-17T16:02:01.713Z</time></trkpt><trkpt lat="44.7694188" lon="8.7001812"><ele>145.16666666666669</ele><time>2026-04-17T16:02:02.713Z</time></trkpt><trkpt lat="44.7693784" lon="8.7003046"><ele>145.33333333333334</ele><time>2026-04-17T16:02:03.713Z</time></trkpt><trkpt lat="44.7693509" lon="8.7004232"><ele>145.5</ele><time>2026-04-17T16:02:04.713Z</time></trkpt><trkpt lat="44.7693124" lon="8.7005392"><ele>145.66666666666666</ele><time>2026-04-17T16:02:05.712Z</time></trkpt><trkpt lat="44.7692816" lon="8.7006586"><ele>145.83333333333331</ele><time>2026-04-17T16:02:06.712Z</time></trkpt><trkpt lat="44.7692604" lon="8.7007638"><ele>146.0</ele><time>2026-04-17T16:02:07.713Z</time></trkpt><trkpt lat="44.7692439" lon="8.700861"><ele>146.0</ele><time>2026-04-17T16:02:08.713Z</time></trkpt><trkpt lat="44.7692203" lon="8.7010176"><ele>146.0</ele><time>2026-04-17T16:02:10.713Z</time></trkpt><trkpt lat="44.7691978" lon="8.7011576"><ele>146.0</ele><time>2026-04-17T16:02:12.713Z</time></trkpt><trkpt lat="44.7691863" lon="8.7012507"><ele>146.0</ele><time>2026-04-17T16:02:15.712Z</time></trkpt><trkpt lat="44.7691517" lon="8.7013572"><ele>146.0</ele><time>2026-04-17T16:02:27.713Z</time></trkpt><trkpt lat="44.7691399" lon="8.7015062"><ele>146.2</ele><time>2026-04-17T16:02:29.712Z</time></trkpt><trkpt lat="44.7691398" lon="8.7016282"><ele>146.39999999999998</ele><time>2026-04-17T16:02:30.712Z</time></trkpt><trkpt lat="44.7691486" lon="8.7017616"><ele>146.6</ele><time>2026-04-17T16:02:31.712Z</time></trkpt><trkpt lat="44.7691663" lon="8.7019148"><ele>146.79999999999998</ele><time>2026-04-17T16:02:32.713Z</time></trkpt><trkpt lat="44.7691875" lon="8.7020706"><ele>147.0</ele><time>2026-04-17T16:02:33.713Z</time></trkpt><trkpt lat="44.7691981" lon="8.7022126"><ele>147.0</ele><time>2026-04-17T16:02:34.713Z</time></trkpt><trkpt lat="44.7692111" lon="8.7023473"><ele>147.0</ele><time>2026-04-17T16:02:35.713Z</time></trkpt><trkpt lat="44.7692311" lon="8.7024763"><ele>147.0</ele><time>2026-04-17T16:02:36.713Z</time></trkpt><trkpt lat="44.7692428" lon="8.702624"><ele>147.0</ele><time>2026-04-17T16:02:37.713Z</time></trkpt><trkpt lat="44.7692588" lon="8.702783"><ele>147.0</ele><time>2026-04-17T16:02:38.713Z</time></trkpt><trkpt lat="44.7692724" lon="8.7029482"><ele>147.0</ele><time>2026-04-17T16:02:39.713Z</time></trkpt><trkpt lat="44.7692904" lon="8.7031181"><ele>147.0</ele><time>2026-04-17T16:02:40.713Z</time></trkpt><trkpt lat="44.769313" lon="8.7032879"><ele>147.0</ele><time>2026-04-17T16:02:41.713Z</time></trkpt><trkpt lat="44.7693381" lon="8.7034689"><ele>147.0</ele><time>2026-04-17T16:02:42.712Z</time></trkpt><trkpt lat="44.7693686" lon="8.7036616"><ele>147.5</ele><time>2026-04-17T16:02:43.713Z</time></trkpt><trkpt lat="44.7693918" lon="8.7038519"><ele>148.0</ele><time>2026-04-17T16:02:44.713Z</time></trkpt><trkpt lat="44.7694254" lon="8.7040517"><ele>148.5</ele><time>2026-04-17T16:02:45.712Z</time></trkpt><trkpt lat="44.7694457" lon="8.7042437"><ele>149.0</ele><time>2026-04-17T16:02:46.713Z</time></trkpt><trkpt lat="44.7694513" lon="8.7044398"><ele>149.25</ele><time>2026-04-17T16:02:47.712Z</time></trkpt><trkpt lat="44.7694524" lon="8.7046358"><ele>149.5</ele><time>2026-04-17T16:02:48.713Z</time></trkpt><trkpt lat="44.7694515" lon="8.704823"><ele>149.75</ele><time>2026-04-17T16:02:49.713Z</time></trkpt><trkpt lat="44.7694344" lon="8.705002"><ele>150.0</ele><time>2026-04-17T16:02:50.713Z</time></trkpt><trkpt lat="44.7694033" lon="8.7051845"><ele>149.75</ele><time>2026-04-17T16:02:51.713Z</time></trkpt><trkpt lat="44.7693833" lon="8.7053561"><ele>149.5</ele><time>2026-04-17T16:02:52.713Z</time></trkpt><trkpt lat="44.7693507" lon="8.7055291"><ele>149.25</ele><time>2026-04-17T16:02:53.713Z</time></trkpt><trkpt lat="44.7693016" lon="8.7056978"><ele>149.0</ele><time>2026-04-17T16:02:54.713Z</time></trkpt><trkpt lat="44.769246" lon="8.7058747"><ele>149.0</ele><time>2026-04-17T16:02:55.713Z</time></trkpt><trkpt lat="44.7691884" lon="8.7060211"><ele>149.0</ele><time>2026-04-17T16:02:56.713Z</time></trkpt><trkpt lat="44.7691353" lon="8.7061993"><ele>149.0</ele><time>2026-04-17T16:02:57.713Z</time></trkpt><trkpt lat="44.7690772" lon="8.7063692"><ele>149.0</ele><time>2026-04-17T16:02:58.713Z</time></trkpt><trkpt lat="44.76902" lon="8.7065273"><ele>149.4</ele><time>2026-04-17T16:02:59.713Z</time></trkpt><trkpt lat="44.7689729" lon="8.706664"><ele>149.8</ele><time>2026-04-17T16:03:00.713Z</time></trkpt><trkpt lat="44.7689292" lon="8.7067948"><ele>150.2</ele><time>2026-04-17T16:03:01.712Z</time></trkpt><trkpt lat="44.7688955" lon="8.7069254"><ele>150.6</ele><time>2026-04-17T16:03:02.712Z</time></trkpt><trkpt lat="44.7688638" lon="8.7070569"><ele>151.0</ele><time>2026-04-17T16:03:03.713Z</time></trkpt><trkpt lat="44.7688301" lon="8.7071687"><ele>151.0</ele><time>2026-04-17T16:03:04.713Z</time></trkpt><trkpt lat="44.7688081" lon="8.7072547"><ele>151.0</ele><time>2026-04-17T16:03:05.713Z</time></trkpt><trkpt lat="44.7687278" lon="8.7073014"><ele>151.0</ele><time>2026-04-17T16:03:07.713Z</time></trkpt><trkpt lat="44.7686477" lon="8.7072092"><ele>151.0</ele><time>2026-04-17T16:03:09.713Z</time></trkpt><trkpt lat="44.7686069" lon="8.7070156"><ele>151.0</ele><time>2026-04-17T16:03:11.713Z</time></trkpt><trkpt lat="44.7686035" lon="8.7068938"><ele>151.0</ele><time>2026-04-17T16:03:12.712Z</time></trkpt><trkpt lat="44.768606" lon="8.7067862"><ele>151.0</ele><time>2026-04-17T16:03:13.712Z</time></trkpt><trkpt lat="44.7686066" lon="8.7066914"><ele>151.0</ele><time>2026-04-17T16:03:14.713Z</time></trkpt><trkpt lat="44.7685841" lon="8.7065445"><ele>151.0</ele><time>2026-04-17T16:03:16.713Z</time></trkpt><trkpt lat="44.7685059" lon="8.7064338"><ele>151.0</ele><time>2026-04-17T16:03:18.713Z</time></trkpt><trkpt lat="44.7684295" lon="8.7064014"><ele>151.0</ele><time>2026-04-17T16:03:19.712Z</time></trkpt><trkpt lat="44.7683345" lon="8.7063687"><ele>151.25</ele><time>2026-04-17T16:03:20.713Z</time></trkpt><trkpt lat="44.7682245" lon="8.7063197"><ele>151.5</ele><time>2026-04-17T16:03:21.713Z</time></trkpt><trkpt lat="44.7681023" lon="8.7062541"><ele>151.75</ele><time>2026-04-17T16:03:22.713Z</time></trkpt><trkpt lat="44.7679608" lon="8.7061798"><ele>152.0</ele><time>2026-04-17T16:03:23.713Z</time></trkpt><trkpt lat="44.7678102" lon="8.7060955"><ele>151.25</ele><time>2026-04-17T16:03:24.713Z</time></trkpt><trkpt lat="44.7676656" lon="8.7060113"><ele>150.5</ele><time>2026-04-17T16:03:25.712Z</time></trkpt><trkpt lat="44.7675298" lon="8.7059255"><ele>149.75</ele><time>2026-04-17T16:03:26.713Z</time></trkpt><trkpt lat="44.7674082" lon="8.7058543"><ele>149.0</ele><time>2026-04-17T16:03:27.713Z</time></trkpt><trkpt lat="44.7673005" lon="8.7057966"><ele>149.0</ele><time>2026-04-17T16:03:28.713Z</time></trkpt><trkpt lat="44.7672007" lon="8.7057498"><ele>149.0</ele><time>2026-04-17T16:03:29.713Z</time></trkpt><trkpt lat="44.7671041" lon="8.7057116"><ele>149.0</ele><time>2026-04-17T16:03:30.713Z</time></trkpt><trkpt lat="44.7670066" lon="8.7056898"><ele>149.0</ele><time>2026-04-17T16:03:31.713Z</time></trkpt><trkpt lat="44.7669143" lon="8.7056628"><ele>149.0</ele><time>2026-04-17T16:03:32.712Z</time></trkpt><trkpt lat="44.7668262" lon="8.7056351"><ele>148.83333333333331</ele><time>2026-04-17T16:03:33.713Z</time></trkpt><trkpt lat="44.7667502" lon="8.7056057"><ele>148.66666666666666</ele><time>2026-04-17T16:03:34.713Z</time></trkpt><trkpt lat="44.7666832" lon="8.7055676"><ele>148.5</ele><time>2026-04-17T16:03:35.713Z</time></trkpt><trkpt lat="44.7666225" lon="8.7055403"><ele>148.33333333333334</ele><time>2026-04-17T16:03:36.713Z</time></trkpt><trkpt lat="44.7665185" lon="8.7055091"><ele>148.16666666666669</ele><time>2026-04-17T16:03:38.713Z</time></trkpt><trkpt lat="44.7664338" lon="8.7055346"><ele>148.0</ele><time>2026-04-17T16:03:40.712Z</time></trkpt><trkpt lat="44.7663873" lon="8.7056968"><ele>148.0</ele><time>2026-04-17T16:03:42.713Z</time></trkpt><trkpt lat="44.7663477" lon="8.7058279"><ele>148.0</ele><time>2026-04-17T16:03:43.713Z</time></trkpt><trkpt lat="44.7662952" lon="8.7059819"><ele>148.0</ele><time>2026-04-17T16:03:44.713Z</time></trkpt><trkpt lat="44.7662267" lon="8.7061665"><ele>148.0</ele><time>2026-04-17T16:03:45.713Z</time></trkpt><trkpt lat="44.7661503" lon="8.7063504"><ele>147.75</ele><time>2026-04-17T16:03:46.713Z</time></trkpt><trkpt lat="44.7660772" lon="8.7065282"><ele>147.5</ele><time>2026-04-17T16:03:47.713Z</time></trkpt><trkpt lat="44.7659996" lon="8.7066858"><ele>147.25</ele><time>2026-04-17T16:03:48.712Z</time></trkpt><trkpt lat="44.765929" lon="8.7068362"><ele>147.0</ele><time>2026-04-17T16:03:49.713Z</time></trkpt><trkpt lat="44.765862" lon="8.7070057"><ele>147.0</ele><time>2026-04-17T16:03:50.712Z</time></trkpt><trkpt lat="44.7657874" lon="8.707173"><ele>147.0</ele><time>2026-04-17T16:03:51.713Z</time></trkpt><trkpt lat="44.7657165" lon="8.7073533"><ele>147.0</ele><time>2026-04-17T16:03:52.713Z</time></trkpt><trkpt lat="44.7656527" lon="8.7075412"><ele>147.0</ele><time>2026-04-17T16:03:53.713Z</time></trkpt><trkpt lat="44.7655936" lon="8.7077416"><ele>147.33333333333334</ele><time>2026-04-17T16:03:54.713Z</time></trkpt><trkpt lat="44.7655417" lon="8.7079516"><ele>147.66666666666669</ele><time>2026-04-17T16:03:55.713Z</time></trkpt><trkpt lat="44.7654828" lon="8.7081653"><ele>148.0</ele><time>2026-04-17T16:03:56.713Z</time></trkpt><trkpt lat="44.7654065" lon="8.7083785"><ele>148.0</ele><time>2026-04-17T16:03:57.712Z</time></trkpt><trkpt lat="44.7653157" lon="8.7085822"><ele>148.0</ele><time>2026-04-17T16:03:58.713Z</time></trkpt><trkpt lat="44.7652229" lon="8.7087933"><ele>148.0</ele><time>2026-04-17T16:03:59.713Z</time></trkpt><trkpt lat="44.7651273" lon="8.7090113"><ele>148.0</ele><time>2026-04-17T16:04:00.713Z</time></trkpt><trkpt lat="44.7650262" lon="8.7092053"><ele>148.0</ele><time>2026-04-17T16:04:01.713Z</time></trkpt><trkpt lat="44.7649212" lon="8.7093509"><ele>148.0</ele><time>2026-04-17T16:04:02.713Z</time></trkpt><trkpt lat="44.7648198" lon="8.7094572"><ele>148.0</ele><time>2026-04-17T16:04:03.713Z</time></trkpt><trkpt lat="44.764708" lon="8.7095487"><ele>148.33333333333334</ele><time>2026-04-17T16:04:04.713Z</time></trkpt><trkpt lat="44.7645827" lon="8.7096376"><ele>148.66666666666666</ele><time>2026-04-17T16:04:05.712Z</time></trkpt><trkpt lat="44.7644496" lon="8.7097421"><ele>149.0</ele><time>2026-04-17T16:04:06.713Z</time></trkpt><trkpt lat="44.7643177" lon="8.7098752"><ele>149.0</ele><time>2026-04-17T16:04:07.712Z</time></trkpt><trkpt lat="44.7641826" lon="8.7100338"><ele>149.0</ele><time>2026-04-17T16:04:08.713Z</time></trkpt><trkpt lat="44.7640387" lon="8.7102164"><ele>149.0</ele><time>2026-04-17T16:04:09.713Z</time></trkpt><trkpt lat="44.76389" lon="8.7104069"><ele>149.33333333333331</ele><time>2026-04-17T16:04:10.713Z</time></trkpt><trkpt lat="44.7637407" lon="8.7106025"><ele>149.66666666666666</ele><time>2026-04-17T16:04:11.713Z</time></trkpt><trkpt lat="44.7635952" lon="8.7107914"><ele>150.0</ele><time>2026-04-17T16:04:12.712Z</time></trkpt><trkpt lat="44.7634439" lon="8.7109721"><ele>150.0</ele><time>2026-04-17T16:04:13.713Z</time></trkpt><trkpt lat="44.7633023" lon="8.7111531"><ele>150.0</ele><time>2026-04-17T16:04:14.713Z</time></trkpt><trkpt lat="44.7631636" lon="8.7113193"><ele>150.0</ele><time>2026-04-17T16:04:15.713Z</time></trkpt><trkpt lat="44.7630286" lon="8.7114728"><ele>150.0</ele><time>2026-04-17T16:04:16.713Z</time></trkpt><trkpt lat="44.7628833" lon="8.711613"><ele>150.0</ele><time>2026-04-17T16:04:17.713Z</time></trkpt><trkpt lat="44.7627179" lon="8.711729"><ele>150.0</ele><time>2026-04-17T16:04:18.713Z</time></trkpt><trkpt lat="44.7625552" lon="8.7118366"><ele>150.33333333333334</ele><time>2026-04-17T16:04:19.713Z</time></trkpt><trkpt lat="44.7623916" lon="8.7119378"><ele>150.66666666666669</ele><time>2026-04-17T16:04:20.713Z</time></trkpt><trkpt lat="44.7622305" lon="8.7120482"><ele>151.0</ele><time>2026-04-17T16:04:21.713Z</time></trkpt><trkpt lat="44.7620807" lon="8.7121876"><ele>151.0</ele><time>2026-04-17T16:04:22.713Z</time></trkpt><trkpt lat="44.7619261" lon="8.7123526"><ele>151.0</ele><time>2026-04-17T16:04:23.713Z</time></trkpt><trkpt lat="44.7617818" lon="8.7125222"><ele>151.0</ele><time>2026-04-17T16:04:24.713Z</time></trkpt><trkpt lat="44.7616275" lon="8.7126797"><ele>151.0</ele><time>2026-04-17T16:04:25.713Z</time></trkpt><trkpt lat="44.761474" lon="8.7128314"><ele>151.0</ele><time>2026-04-17T16:04:26.712Z</time></trkpt><trkpt lat="44.7613197" lon="8.7129676"><ele>151.0</ele><time>2026-04-17T16:04:27.713Z</time></trkpt><trkpt lat="44.7611672" lon="8.713098"><ele>150.66666666666669</ele><time>2026-04-17T16:04:28.712Z</time></trkpt><trkpt lat="44.7610053" lon="8.7132056"><ele>150.33333333333334</ele><time>2026-04-17T16:04:29.713Z</time></trkpt><trkpt lat="44.7608294" lon="8.7132955"><ele>150.0</ele><time>2026-04-17T16:04:30.713Z</time></trkpt><trkpt lat="44.76065" lon="8.7133705"><ele>150.0</ele><time>2026-04-17T16:04:31.713Z</time></trkpt><trkpt lat="44.7604704" lon="8.7134452"><ele>150.0</ele><time>2026-04-17T16:04:32.713Z</time></trkpt><trkpt lat="44.7602846" lon="8.713528"><ele>150.0</ele><time>2026-04-17T16:04:33.713Z</time></trkpt><trkpt lat="44.7600926" lon="8.7136311"><ele>149.0</ele><time>2026-04-17T16:04:34.713Z</time></trkpt><trkpt lat="44.7598982" lon="8.7137515"><ele>148.0</ele><time>2026-04-17T16:04:35.713Z</time></trkpt><trkpt lat="44.7597076" lon="8.713886"><ele>147.0</ele><time>2026-04-17T16:04:36.713Z</time></trkpt><trkpt lat="44.7595201" lon="8.7140177"><ele>146.0</ele><time>2026-04-17T16:04:37.713Z</time></trkpt><trkpt lat="44.7593272" lon="8.7141432"><ele>145.0</ele><time>2026-04-17T16:04:38.713Z</time></trkpt><trkpt lat="44.7591351" lon="8.71426"><ele>144.0</ele><time>2026-04-17T16:04:39.713Z</time></trkpt><trkpt lat="44.7589416" lon="8.7143811"><ele>144.33333333333334</ele><time>2026-04-17T16:04:40.713Z</time></trkpt><trkpt lat="44.7587496" lon="8.7145083"><ele>144.66666666666669</ele><time>2026-04-17T16:04:41.712Z</time></trkpt><trkpt lat="44.758555" lon="8.714638"><ele>145.0</ele><time>2026-04-17T16:04:42.712Z</time></trkpt><trkpt lat="44.7583608" lon="8.7147683"><ele>145.0</ele><time>2026-04-17T16:04:43.712Z</time></trkpt><trkpt lat="44.7581703" lon="8.7148913"><ele>145.0</ele><time>2026-04-17T16:04:44.713Z</time></trkpt><trkpt lat="44.7579788" lon="8.7150132"><ele>145.0</ele><time>2026-04-17T16:04:45.712Z</time></trkpt><trkpt lat="44.7577877" lon="8.7151344"><ele>146.66666666666669</ele><time>2026-04-17T16:04:46.713Z</time></trkpt><trkpt lat="44.7575943" lon="8.7152527"><ele>148.33333333333334</ele><time>2026-04-17T16:04:47.713Z</time></trkpt><trkpt lat="44.7574107" lon="8.7153809"><ele>150.0</ele><time>2026-04-17T16:04:48.712Z</time></trkpt><trkpt lat="44.757226" lon="8.7155035"><ele>150.0</ele><time>2026-04-17T16:04:49.712Z</time></trkpt><trkpt lat="44.7570371" lon="8.7156204"><ele>150.0</ele><time>2026-04-17T16:04:50.712Z</time></trkpt><trkpt lat="44.7568452" lon="8.7157437"><ele>150.0</ele><time>2026-04-17T16:04:51.712Z</time></trkpt><trkpt lat="44.7566503" lon="8.7158715"><ele>151.33333333333334</ele><time>2026-04-17T16:04:52.713Z</time></trkpt><trkpt lat="44.7564595" lon="8.7159984"><ele>152.66666666666669</ele><time>2026-04-17T16:04:53.713Z</time></trkpt><trkpt lat="44.7562723" lon="8.7161207"><ele>154.0</ele><time>2026-04-17T16:04:54.713Z</time></trkpt><trkpt lat="44.7561103" lon="8.7162416"><ele>151.33333333333334</ele><time>2026-04-17T16:04:55.713Z</time></trkpt><trkpt lat="44.7559556" lon="8.7163823"><ele>148.66666666666666</ele><time>2026-04-17T16:04:56.712Z</time></trkpt><trkpt lat="44.7558134" lon="8.716555"><ele>146.0</ele><time>2026-04-17T16:04:57.713Z</time></trkpt><trkpt lat="44.755686" lon="8.7167609"><ele>150.0</ele><time>2026-04-17T16:04:58.712Z</time></trkpt><trkpt lat="44.7555658" lon="8.716988"><ele>154.0</ele><time>2026-04-17T16:04:59.713Z</time></trkpt><trkpt lat="44.7554488" lon="8.7172157"><ele>158.0</ele><time>2026-04-17T16:05:00.712Z</time></trkpt><trkpt lat="44.7553204" lon="8.7174308"><ele>156.66666666666666</ele><time>2026-04-17T16:05:01.713Z</time></trkpt><trkpt lat="44.7551922" lon="8.7176399"><ele>155.33333333333334</ele><time>2026-04-17T16:05:02.713Z</time></trkpt><trkpt lat="44.7550567" lon="8.7178376"><ele>154.0</ele><time>2026-04-17T16:05:03.713Z</time></trkpt><trkpt lat="44.7549112" lon="8.7180069"><ele>154.0</ele><time>2026-04-17T16:05:04.713Z</time></trkpt><trkpt lat="44.7547583" lon="8.7181775"><ele>154.0</ele><time>2026-04-17T16:05:05.713Z</time></trkpt><trkpt lat="44.754596" lon="8.7183402"><ele>154.0</ele><time>2026-04-17T16:05:06.713Z</time></trkpt><trkpt lat="44.7544349" lon="8.7185145"><ele>154.0</ele><time>2026-04-17T16:05:07.713Z</time></trkpt><trkpt lat="44.7542686" lon="8.7186955"><ele>154.0</ele><time>2026-04-17T16:05:08.713Z</time></trkpt><trkpt lat="44.7540975" lon="8.7188732"><ele>154.0</ele><time>2026-04-17T16:05:09.712Z</time></trkpt><trkpt lat="44.7539231" lon="8.7190473"><ele>154.0</ele><time>2026-04-17T16:05:10.713Z</time></trkpt><trkpt lat="44.7537608" lon="8.7192193"><ele>154.0</ele><time>2026-04-17T16:05:11.712Z</time></trkpt><trkpt lat="44.7536015" lon="8.7193857"><ele>154.0</ele><time>2026-04-17T16:05:12.713Z</time></trkpt><trkpt lat="44.753449" lon="8.7195496"><ele>153.33333333333334</ele><time>2026-04-17T16:05:13.713Z</time></trkpt><trkpt lat="44.7533041" lon="8.7197004"><ele>152.66666666666666</ele><time>2026-04-17T16:05:14.712Z</time></trkpt><trkpt lat="44.7531571" lon="8.71982"><ele>152.0</ele><time>2026-04-17T16:05:15.713Z</time></trkpt><trkpt lat="44.7530086" lon="8.7199089"><ele>152.0</ele><time>2026-04-17T16:05:16.713Z</time></trkpt><trkpt lat="44.7528497" lon="8.7199571"><ele>152.0</ele><time>2026-04-17T16:05:17.712Z</time></trkpt><trkpt lat="44.7526854" lon="8.7199766"><ele>152.0</ele><time>2026-04-17T16:05:18.713Z</time></trkpt><trkpt lat="44.7525159" lon="8.7199845"><ele>149.66666666666666</ele><time>2026-04-17T16:05:19.713Z</time></trkpt><trkpt lat="44.7523479" lon="8.7199744"><ele>147.33333333333334</ele><time>2026-04-17T16:05:20.713Z</time></trkpt><trkpt lat="44.7521801" lon="8.7199728"><ele>145.0</ele><time>2026-04-17T16:05:21.713Z</time></trkpt><trkpt lat="44.7520055" lon="8.7199711"><ele>144.66666666666669</ele><time>2026-04-17T16:05:22.712Z</time></trkpt><trkpt lat="44.7518252" lon="8.719966"><ele>144.33333333333334</ele><time>2026-04-17T16:05:23.713Z</time></trkpt><trkpt lat="44.7516299" lon="8.7199525"><ele>144.0</ele><time>2026-04-17T16:05:24.712Z</time></trkpt><trkpt lat="44.7514312" lon="8.7199405"><ele>144.0</ele><time>2026-04-17T16:05:25.713Z</time></trkpt><trkpt lat="44.751226" lon="8.7199259"><ele>144.0</ele><time>2026-04-17T16:05:26.712Z</time></trkpt><trkpt lat="44.7510164" lon="8.7199124"><ele>144.0</ele><time>2026-04-17T16:05:27.713Z</time></trkpt><trkpt lat="44.7508121" lon="8.7198976"><ele>143.33333333333334</ele><time>2026-04-17T16:05:28.713Z</time></trkpt><trkpt lat="44.7506097" lon="8.7198868"><ele>142.66666666666669</ele><time>2026-04-17T16:05:29.712Z</time></trkpt><trkpt lat="44.7504174" lon="8.7198789"><ele>142.0</ele><time>2026-04-17T16:05:30.713Z</time></trkpt><trkpt lat="44.7502349" lon="8.7198763"><ele>143.66666666666669</ele><time>2026-04-17T16:05:31.712Z</time></trkpt><trkpt lat="44.7500667" lon="8.7199013"><ele>145.33333333333334</ele><time>2026-04-17T16:05:32.713Z</time></trkpt><trkpt lat="44.7498906" lon="8.7199614"><ele>147.0</ele><time>2026-04-17T16:05:33.713Z</time></trkpt><trkpt lat="44.7497145" lon="8.7200467"><ele>147.0</ele><time>2026-04-17T16:05:34.713Z</time></trkpt><trkpt lat="44.7495525" lon="8.7201509"><ele>147.0</ele><time>2026-04-17T16:05:35.713Z</time></trkpt><trkpt lat="44.7493965" lon="8.7202711"><ele>147.0</ele><time>2026-04-17T16:05:36.712Z</time></trkpt><trkpt lat="44.7492441" lon="8.7203961"><ele>148.33333333333334</ele><time>2026-04-17T16:05:37.713Z</time></trkpt><trkpt lat="44.7491079" lon="8.7205236"><ele>149.66666666666669</ele><time>2026-04-17T16:05:38.712Z</time></trkpt><trkpt lat="44.7489889" lon="8.7206728"><ele>151.0</ele><time>2026-04-17T16:05:39.713Z</time></trkpt><trkpt lat="44.7488798" lon="8.7208274"><ele>151.0</ele><time>2026-04-17T16:05:40.713Z</time></trkpt><trkpt lat="44.7487638" lon="8.7209613"><ele>151.0</ele><time>2026-04-17T16:05:41.713Z</time></trkpt><trkpt lat="44.7486313" lon="8.7210512"><ele>151.0</ele><time>2026-04-17T16:05:42.713Z</time></trkpt><trkpt lat="44.7484859" lon="8.721117"><ele>154.0</ele><time>2026-04-17T16:05:43.713Z</time></trkpt><trkpt lat="44.7483215" lon="8.7211703"><ele>157.0</ele><time>2026-04-17T16:05:44.712Z</time></trkpt><trkpt lat="44.7481563" lon="8.7212193"><ele>160.0</ele><time>2026-04-17T16:05:45.713Z</time></trkpt><trkpt lat="44.7479757" lon="8.7212781"><ele>160.0</ele><time>2026-04-17T16:05:46.713Z</time></trkpt><trkpt lat="44.7477831" lon="8.721339"><ele>160.0</ele><time>2026-04-17T16:05:47.713Z</time></trkpt><trkpt lat="44.7475791" lon="8.7213968"><ele>160.0</ele><time>2026-04-17T16:05:48.713Z</time></trkpt><trkpt lat="44.7473702" lon="8.7214554"><ele>157.66666666666669</ele><time>2026-04-17T16:05:49.712Z</time></trkpt><trkpt lat="44.7471653" lon="8.721516"><ele>155.33333333333334</ele><time>2026-04-17T16:05:50.712Z</time></trkpt><trkpt lat="44.7469631" lon="8.7215789"><ele>153.0</ele><time>2026-04-17T16:05:51.713Z</time></trkpt><trkpt lat="44.7467659" lon="8.7216443"><ele>151.66666666666666</ele><time>2026-04-17T16:05:52.712Z</time></trkpt><trkpt lat="44.7465743" lon="8.7217082"><ele>150.33333333333331</ele><time>2026-04-17T16:05:53.713Z</time></trkpt><trkpt lat="44.7463918" lon="8.7217733"><ele>149.0</ele><time>2026-04-17T16:05:54.713Z</time></trkpt><trkpt lat="44.7462156" lon="8.7218311"><ele>149.66666666666666</ele><time>2026-04-17T16:05:55.713Z</time></trkpt><trkpt lat="44.746053" lon="8.7218988"><ele>150.33333333333334</ele><time>2026-04-17T16:05:56.713Z</time></trkpt><trkpt lat="44.7458884" lon="8.7220058"><ele>151.0</ele><time>2026-04-17T16:05:57.712Z</time></trkpt><trkpt lat="44.7457225" lon="8.7221449"><ele>151.0</ele><time>2026-04-17T16:05:58.713Z</time></trkpt><trkpt lat="44.7455689" lon="8.7223034"><ele>151.0</ele><time>2026-04-17T16:05:59.712Z</time></trkpt><trkpt lat="44.7454042" lon="8.7224592"><ele>151.0</ele><time>2026-04-17T16:06:00.712Z</time></trkpt><trkpt lat="44.7452372" lon="8.7226165"><ele>150.33333333333334</ele><time>2026-04-17T16:06:01.713Z</time></trkpt><trkpt lat="44.7450646" lon="8.7227664"><ele>149.66666666666666</ele><time>2026-04-17T16:06:02.713Z</time></trkpt><trkpt lat="44.744888" lon="8.7229146"><ele>149.0</ele><time>2026-04-17T16:06:03.713Z</time></trkpt><trkpt lat="44.7447151" lon="8.7230718"><ele>149.0</ele><time>2026-04-17T16:06:04.713Z</time></trkpt><trkpt lat="44.7445432" lon="8.7232407"><ele>149.0</ele><time>2026-04-17T16:06:05.712Z</time></trkpt><trkpt lat="44.7443684" lon="8.7234009"><ele>149.0</ele><time>2026-04-17T16:06:06.713Z</time></trkpt><trkpt lat="44.7441946" lon="8.7235589"><ele>149.33333333333331</ele><time>2026-04-17T16:06:07.713Z</time></trkpt><trkpt lat="44.744017" lon="8.7237228"><ele>149.66666666666666</ele><time>2026-04-17T16:06:08.713Z</time></trkpt><trkpt lat="44.7438362" lon="8.723887"><ele>150.0</ele><time>2026-04-17T16:06:09.713Z</time></trkpt><trkpt lat="44.7436557" lon="8.7240522"><ele>150.66666666666666</ele><time>2026-04-17T16:06:10.713Z</time></trkpt><trkpt lat="44.7434781" lon="8.7242193"><ele>151.33333333333331</ele><time>2026-04-17T16:06:11.713Z</time></trkpt><trkpt lat="44.7432956" lon="8.7243833"><ele>152.0</ele><time>2026-04-17T16:06:12.713Z</time></trkpt><trkpt lat="44.7431124" lon="8.7245524"><ele>152.0</ele><time>2026-04-17T16:06:13.713Z</time></trkpt><trkpt lat="44.7429331" lon="8.7247181"><ele>152.0</ele><time>2026-04-17T16:06:14.713Z</time></trkpt><trkpt lat="44.7427592" lon="8.7248843"><ele>152.0</ele><time>2026-04-17T16:06:15.713Z</time></trkpt><trkpt lat="44.742577" lon="8.7250485"><ele>152.0</ele><time>2026-04-17T16:06:16.713Z</time></trkpt><trkpt lat="44.7423896" lon="8.7252105"><ele>152.0</ele><time>2026-04-17T16:06:17.713Z</time></trkpt><trkpt lat="44.7422115" lon="8.7253749"><ele>152.0</ele><time>2026-04-17T16:06:18.712Z</time></trkpt><trkpt lat="44.7420334" lon="8.7255349"><ele>152.33333333333331</ele><time>2026-04-17T16:06:19.713Z</time></trkpt><trkpt lat="44.7418565" lon="8.7256979"><ele>152.66666666666666</ele><time>2026-04-17T16:06:20.712Z</time></trkpt><trkpt lat="44.7416818" lon="8.7258629"><ele>153.0</ele><time>2026-04-17T16:06:21.713Z</time></trkpt><trkpt lat="44.7415082" lon="8.7260322"><ele>153.66666666666666</ele><time>2026-04-17T16:06:22.712Z</time></trkpt><trkpt lat="44.7413515" lon="8.7262055"><ele>154.33333333333331</ele><time>2026-04-17T16:06:23.712Z</time></trkpt><trkpt lat="44.7411836" lon="8.7263676"><ele>155.0</ele><time>2026-04-17T16:06:24.713Z</time></trkpt><trkpt lat="44.7409925" lon="8.7265285"><ele>155.0</ele><time>2026-04-17T16:06:25.712Z</time></trkpt><trkpt lat="44.7408194" lon="8.7266994"><ele>155.0</ele><time>2026-04-17T16:06:26.713Z</time></trkpt><trkpt lat="44.7406377" lon="8.7268626"><ele>155.0</ele><time>2026-04-17T16:06:27.713Z</time></trkpt><trkpt lat="44.7404563" lon="8.7270181"><ele>155.0</ele><time>2026-04-17T16:06:28.713Z</time></trkpt><trkpt lat="44.7402719" lon="8.7271806"><ele>155.0</ele><time>2026-04-17T16:06:29.713Z</time></trkpt><trkpt lat="44.7400881" lon="8.7273389"><ele>155.0</ele><time>2026-04-17T16:06:30.713Z</time></trkpt><trkpt lat="44.739923" lon="8.7275014"><ele>155.0</ele><time>2026-04-17T16:06:31.713Z</time></trkpt><trkpt lat="44.7397616" lon="8.7276484"><ele>155.0</ele><time>2026-04-17T16:06:32.712Z</time></trkpt><trkpt lat="44.739592" lon="8.7278003"><ele>155.0</ele><time>2026-04-17T16:06:33.712Z</time></trkpt><trkpt lat="44.7394245" lon="8.7279579"><ele>156.0</ele><time>2026-04-17T16:06:34.713Z</time></trkpt><trkpt lat="44.739251" lon="8.728107"><ele>157.0</ele><time>2026-04-17T16:06:35.713Z</time></trkpt><trkpt lat="44.7390818" lon="8.7282639"><ele>158.0</ele><time>2026-04-17T16:06:36.712Z</time></trkpt><trkpt lat="44.738919" lon="8.7284263"><ele>160.0</ele><time>2026-04-17T16:06:37.713Z</time></trkpt><trkpt lat="44.7387484" lon="8.7285797"><ele>162.0</ele><time>2026-04-17T16:06:38.713Z</time></trkpt><trkpt lat="44.7385855" lon="8.7287359"><ele>164.0</ele><time>2026-04-17T16:06:39.713Z</time></trkpt><trkpt lat="44.7384194" lon="8.7288827"><ele>164.0</ele><time>2026-04-17T16:06:40.713Z</time></trkpt><trkpt lat="44.73825" lon="8.7290196"><ele>164.0</ele><time>2026-04-17T16:06:41.712Z</time></trkpt><trkpt lat="44.7380885" lon="8.7291661"><ele>164.0</ele><time>2026-04-17T16:06:42.713Z</time></trkpt><trkpt lat="44.7379356" lon="8.7293153"><ele>164.0</ele><time>2026-04-17T16:06:43.713Z</time></trkpt><trkpt lat="44.7377871" lon="8.7294688"><ele>164.0</ele><time>2026-04-17T16:06:44.712Z</time></trkpt><trkpt lat="44.7376336" lon="8.7296119"><ele>164.0</ele><time>2026-04-17T16:06:45.713Z</time></trkpt><trkpt lat="44.7374825" lon="8.7297446"><ele>164.0</ele><time>2026-04-17T16:06:46.713Z</time></trkpt><trkpt lat="44.737341" lon="8.7298761"><ele>164.0</ele><time>2026-04-17T16:06:47.712Z</time></trkpt><trkpt lat="44.7371923" lon="8.7300057"><ele>164.0</ele><time>2026-04-17T16:06:48.712Z</time></trkpt><trkpt lat="44.7370495" lon="8.7301257"><ele>164.0</ele><time>2026-04-17T16:06:49.713Z</time></trkpt><trkpt lat="44.7369036" lon="8.7302569"><ele>164.0</ele><time>2026-04-17T16:06:50.713Z</time></trkpt><trkpt lat="44.7367571" lon="8.7303772"><ele>164.0</ele><time>2026-04-17T16:06:51.713Z</time></trkpt><trkpt lat="44.7366209" lon="8.7305079"><ele>164.0</ele><time>2026-04-17T16:06:52.713Z</time></trkpt><trkpt lat="44.7364887" lon="8.7306365"><ele>164.0</ele><time>2026-04-17T16:06:53.712Z</time></trkpt><trkpt lat="44.7363563" lon="8.7307663"><ele>164.0</ele><time>2026-04-17T16:06:54.713Z</time></trkpt><trkpt lat="44.7362235" lon="8.7308853"><ele>164.0</ele><time>2026-04-17T16:06:55.713Z</time></trkpt><trkpt lat="44.7360935" lon="8.7309977"><ele>164.0</ele><time>2026-04-17T16:06:56.713Z</time></trkpt><trkpt lat="44.7359652" lon="8.7311086"><ele>164.0</ele><time>2026-04-17T16:06:57.713Z</time></trkpt><trkpt lat="44.7358505" lon="8.7312297"><ele>164.0</ele><time>2026-04-17T16:06:58.713Z</time></trkpt><trkpt lat="44.7357304" lon="8.7313367"><ele>164.25</ele><time>2026-04-17T16:06:59.713Z</time></trkpt><trkpt lat="44.7356167" lon="8.7314393"><ele>164.5</ele><time>2026-04-17T16:07:00.713Z</time></trkpt><trkpt lat="44.7355113" lon="8.7315424"><ele>164.75</ele><time>2026-04-17T16:07:01.713Z</time></trkpt><trkpt lat="44.7353974" lon="8.7316391"><ele>165.0</ele><time>2026-04-17T16:07:02.713Z</time></trkpt><trkpt lat="44.7352843" lon="8.7317381"><ele>165.25</ele><time>2026-04-17T16:07:03.713Z</time></trkpt><trkpt lat="44.7351659" lon="8.7318508"><ele>165.5</ele><time>2026-04-17T16:07:04.713Z</time></trkpt><trkpt lat="44.7350383" lon="8.7319578"><ele>165.75</ele><time>2026-04-17T16:07:05.713Z</time></trkpt><trkpt lat="44.7349135" lon="8.7320799"><ele>166.0</ele><time>2026-04-17T16:07:06.713Z</time></trkpt><trkpt lat="44.7347849" lon="8.732199"><ele>166.0</ele><time>2026-04-17T16:07:07.713Z</time></trkpt><trkpt lat="44.7346487" lon="8.7323188"><ele>166.0</ele><time>2026-04-17T16:07:08.713Z</time></trkpt><trkpt lat="44.7345217" lon="8.7324272"><ele>166.0</ele><time>2026-04-17T16:07:09.712Z</time></trkpt><trkpt lat="44.7344054" lon="8.7325356"><ele>166.0</ele><time>2026-04-17T16:07:10.713Z</time></trkpt><trkpt lat="44.7342918" lon="8.7326461"><ele>167.20000000000002</ele><time>2026-04-17T16:07:11.712Z</time></trkpt><trkpt lat="44.7341978" lon="8.7327315"><ele>168.4</ele><time>2026-04-17T16:07:12.713Z</time></trkpt><trkpt lat="44.7341185" lon="8.7328041"><ele>169.6</ele><time>2026-04-17T16:07:13.713Z</time></trkpt><trkpt lat="44.7340422" lon="8.7328706"><ele>170.8</ele><time>2026-04-17T16:07:14.713Z</time></trkpt><trkpt lat="44.7339676" lon="8.7329563"><ele>172.0</ele><time>2026-04-17T16:07:15.713Z</time></trkpt><trkpt lat="44.7338808" lon="8.7330532"><ele>172.0</ele><time>2026-04-17T16:07:16.713Z</time></trkpt><trkpt lat="44.7337773" lon="8.7331632"><ele>172.0</ele><time>2026-04-17T16:07:17.713Z</time></trkpt><trkpt lat="44.733664" lon="8.7332685"><ele>172.0</ele><time>2026-04-17T16:07:18.713Z</time></trkpt><trkpt lat="44.7335463" lon="8.733383"><ele>172.0</ele><time>2026-04-17T16:07:19.713Z</time></trkpt><trkpt lat="44.7334252" lon="8.7334925"><ele>171.75</ele><time>2026-04-17T16:07:20.713Z</time></trkpt><trkpt lat="44.7332984" lon="8.7335886"><ele>171.5</ele><time>2026-04-17T16:07:21.713Z</time></trkpt><trkpt lat="44.7331656" lon="8.7336678"><ele>171.25</ele><time>2026-04-17T16:07:22.713Z</time></trkpt><trkpt lat="44.7330254" lon="8.733732"><ele>171.0</ele><time>2026-04-17T16:07:23.713Z</time></trkpt><trkpt lat="44.7328906" lon="8.733791"><ele>171.0</ele><time>2026-04-17T16:07:24.713Z</time></trkpt><trkpt lat="44.7327691" lon="8.7338856"><ele>171.0</ele><time>2026-04-17T16:07:25.713Z</time></trkpt><trkpt lat="44.7326481" lon="8.7340079"><ele>171.0</ele><time>2026-04-17T16:07:26.712Z</time></trkpt><trkpt lat="44.7325243" lon="8.7341538"><ele>171.0</ele><time>2026-04-17T16:07:27.713Z</time></trkpt><trkpt lat="44.7324081" lon="8.7343103"><ele>172.5</ele><time>2026-04-17T16:07:28.713Z</time></trkpt><trkpt lat="44.7322898" lon="8.734453"><ele>174.0</ele><time>2026-04-17T16:07:29.713Z</time></trkpt><trkpt lat="44.7321739" lon="8.7345737"><ele>175.5</ele><time>2026-04-17T16:07:30.712Z</time></trkpt><trkpt lat="44.7320711" lon="8.7346978"><ele>177.0</ele><time>2026-04-17T16:07:31.713Z</time></trkpt><trkpt lat="44.731969" lon="8.7348101"><ele>174.6</ele><time>2026-04-17T16:07:32.712Z</time></trkpt><trkpt lat="44.7318771" lon="8.7348921"><ele>172.2</ele><time>2026-04-17T16:07:33.713Z</time></trkpt><trkpt lat="44.7317966" lon="8.7349571"><ele>169.8</ele><time>2026-04-17T16:07:34.713Z</time></trkpt><trkpt lat="44.7317162" lon="8.7350179"><ele>167.4</ele><time>2026-04-17T16:07:35.713Z</time></trkpt><trkpt lat="44.7316327" lon="8.7350738"><ele>165.0</ele><time>2026-04-17T16:07:36.712Z</time></trkpt><trkpt lat="44.7315371" lon="8.7351238"><ele>165.0</ele><time>2026-04-17T16:07:37.713Z</time></trkpt><trkpt lat="44.7314187" lon="8.7351648"><ele>165.0</ele><time>2026-04-17T16:07:38.713Z</time></trkpt><trkpt lat="44.7312932" lon="8.7351958"><ele>165.0</ele><time>2026-04-17T16:07:39.713Z</time></trkpt><trkpt lat="44.7311533" lon="8.7352199"><ele>165.0</ele><time>2026-04-17T16:07:40.712Z</time></trkpt><trkpt lat="44.7310097" lon="8.7352425"><ele>167.0</ele><time>2026-04-17T16:07:41.712Z</time></trkpt><trkpt lat="44.7308762" lon="8.7352817"><ele>169.0</ele><time>2026-04-17T16:07:42.713Z</time></trkpt><trkpt lat="44.7307783" lon="8.7353825"><ele>171.0</ele><time>2026-04-17T16:07:43.712Z</time></trkpt><trkpt lat="44.7306643" lon="8.7354726"><ele>173.0</ele><time>2026-04-17T16:07:44.712Z</time></trkpt><trkpt lat="44.7305528" lon="8.7355782"><ele>173.0</ele><time>2026-04-17T16:07:45.713Z</time></trkpt><trkpt lat="44.7304485" lon="8.7357146"><ele>173.0</ele><time>2026-04-17T16:07:46.713Z</time></trkpt><trkpt lat="44.7303387" lon="8.7358679"><ele>173.0</ele><time>2026-04-17T16:07:47.713Z</time></trkpt><trkpt lat="44.7302213" lon="8.7360246"><ele>173.0</ele><time>2026-04-17T16:07:48.713Z</time></trkpt><trkpt lat="44.7300845" lon="8.7361798"><ele>173.0</ele><time>2026-04-17T16:07:49.713Z</time></trkpt><trkpt lat="44.7299546" lon="8.7363452"><ele>173.0</ele><time>2026-04-17T16:07:50.713Z</time></trkpt><trkpt lat="44.7298133" lon="8.7365062"><ele>173.0</ele><time>2026-04-17T16:07:51.713Z</time></trkpt><trkpt lat="44.7296661" lon="8.7366597"><ele>173.0</ele><time>2026-04-17T16:07:52.712Z</time></trkpt><trkpt lat="44.7295144" lon="8.7368079"><ele>173.0</ele><time>2026-04-17T16:07:53.712Z</time></trkpt><trkpt lat="44.7293635" lon="8.7369481"><ele>172.66666666666666</ele><time>2026-04-17T16:07:54.712Z</time></trkpt><trkpt lat="44.7292256" lon="8.7370915"><ele>172.33333333333334</ele><time>2026-04-17T16:07:55.712Z</time></trkpt><trkpt lat="44.729094" lon="8.7372331"><ele>172.0</ele><time>2026-04-17T16:07:56.713Z</time></trkpt><trkpt lat="44.7289557" lon="8.7373743"><ele>172.0</ele><time>2026-04-17T16:07:57.713Z</time></trkpt><trkpt lat="44.7288138" lon="8.7375025"><ele>172.0</ele><time>2026-04-17T16:07:58.713Z</time></trkpt><trkpt lat="44.728669" lon="8.7376125"><ele>172.0</ele><time>2026-04-17T16:07:59.712Z</time></trkpt><trkpt lat="44.72852" lon="8.7377115"><ele>168.66666666666669</ele><time>2026-04-17T16:08:00.713Z</time></trkpt><trkpt lat="44.7283658" lon="8.7378001"><ele>165.33333333333334</ele><time>2026-04-17T16:08:01.712Z</time></trkpt><trkpt lat="44.7282086" lon="8.7379073"><ele>162.0</ele><time>2026-04-17T16:08:02.712Z</time></trkpt><trkpt lat="44.7280406" lon="8.73801"><ele>162.0</ele><time>2026-04-17T16:08:03.712Z</time></trkpt><trkpt lat="44.7278791" lon="8.7381162"><ele>162.0</ele><time>2026-04-17T16:08:04.713Z</time></trkpt><trkpt lat="44.7277241" lon="8.7382252"><ele>162.0</ele><time>2026-04-17T16:08:05.713Z</time></trkpt><trkpt lat="44.727546" lon="8.738327"><ele>161.66666666666666</ele><time>2026-04-17T16:08:06.713Z</time></trkpt><trkpt lat="44.7273737" lon="8.7384336"><ele>161.33333333333331</ele><time>2026-04-17T16:08:07.713Z</time></trkpt><trkpt lat="44.7271982" lon="8.7385456"><ele>161.0</ele><time>2026-04-17T16:08:08.713Z</time></trkpt><trkpt lat="44.7270088" lon="8.7386547"><ele>160.66666666666666</ele><time>2026-04-17T16:08:09.713Z</time></trkpt><trkpt lat="44.7268298" lon="8.7387732"><ele>160.33333333333334</ele><time>2026-04-17T16:08:10.713Z</time></trkpt><trkpt lat="44.7266429" lon="8.7388939"><ele>160.0</ele><time>2026-04-17T16:08:11.713Z</time></trkpt><trkpt lat="44.7264585" lon="8.73902"><ele>160.0</ele><time>2026-04-17T16:08:12.713Z</time></trkpt><trkpt lat="44.7262719" lon="8.7391397"><ele>160.0</ele><time>2026-04-17T16:08:13.712Z</time></trkpt><trkpt lat="44.7260838" lon="8.7392625"><ele>160.0</ele><time>2026-04-17T16:08:14.713Z</time></trkpt><trkpt lat="44.7258896" lon="8.739386"><ele>160.33333333333334</ele><time>2026-04-17T16:08:15.712Z</time></trkpt><trkpt lat="44.7256961" lon="8.7395093"><ele>160.66666666666666</ele><time>2026-04-17T16:08:16.712Z</time></trkpt><trkpt lat="44.7255036" lon="8.7396322"><ele>161.0</ele><time>2026-04-17T16:08:17.712Z</time></trkpt><trkpt lat="44.7253259" lon="8.7397581"><ele>161.33333333333331</ele><time>2026-04-17T16:08:18.713Z</time></trkpt><trkpt lat="44.7251478" lon="8.7398789"><ele>161.66666666666666</ele><time>2026-04-17T16:08:19.713Z</time></trkpt><trkpt lat="44.7249671" lon="8.7400045"><ele>162.0</ele><time>2026-04-17T16:08:20.713Z</time></trkpt><trkpt lat="44.7247928" lon="8.7401302"><ele>162.0</ele><time>2026-04-17T16:08:21.712Z</time></trkpt><trkpt lat="44.7246124" lon="8.7402469"><ele>162.0</ele><time>2026-04-17T16:08:22.712Z</time></trkpt><trkpt lat="44.7244307" lon="8.7403587"><ele>162.0</ele><time>2026-04-17T16:08:23.713Z</time></trkpt><trkpt lat="44.7242527" lon="8.7404782"><ele>162.0</ele><time>2026-04-17T16:08:24.713Z</time></trkpt><trkpt lat="44.72407" lon="8.7406081"><ele>162.0</ele><time>2026-04-17T16:08:25.713Z</time></trkpt><trkpt lat="44.7238839" lon="8.7407362"><ele>162.0</ele><time>2026-04-17T16:08:26.712Z</time></trkpt><trkpt lat="44.7236985" lon="8.7408577"><ele>162.0</ele><time>2026-04-17T16:08:27.712Z</time></trkpt><trkpt lat="44.7235104" lon="8.7409785"><ele>162.0</ele><time>2026-04-17T16:08:28.712Z</time></trkpt><trkpt lat="44.7233233" lon="8.7411002"><ele>162.0</ele><time>2026-04-17T16:08:29.712Z</time></trkpt><trkpt lat="44.723138" lon="8.7412205"><ele>162.0</ele><time>2026-04-17T16:08:30.712Z</time></trkpt><trkpt lat="44.7229486" lon="8.7413448"><ele>162.0</ele><time>2026-04-17T16:08:31.712Z</time></trkpt><trkpt lat="44.7227645" lon="8.741469"><ele>162.0</ele><time>2026-04-17T16:08:32.712Z</time></trkpt><trkpt lat="44.7225877" lon="8.7415876"><ele>162.33333333333334</ele><time>2026-04-17T16:08:33.712Z</time></trkpt><trkpt lat="44.722406" lon="8.7417042"><ele>162.66666666666669</ele><time>2026-04-17T16:08:34.712Z</time></trkpt><trkpt lat="44.7222285" lon="8.7418278"><ele>163.0</ele><time>2026-04-17T16:08:35.712Z</time></trkpt><trkpt lat="44.722049" lon="8.7419526"><ele>164.33333333333334</ele><time>2026-04-17T16:08:36.711Z</time></trkpt><trkpt lat="44.7218702" lon="8.7420707"><ele>165.66666666666666</ele><time>2026-04-17T16:08:37.712Z</time></trkpt><trkpt lat="44.7216918" lon="8.742189"><ele>167.0</ele><time>2026-04-17T16:08:38.711Z</time></trkpt><trkpt lat="44.7215164" lon="8.7423115"><ele>167.0</ele><time>2026-04-17T16:08:39.712Z</time></trkpt><trkpt lat="44.7213486" lon="8.7424284"><ele>167.0</ele><time>2026-04-17T16:08:40.712Z</time></trkpt><trkpt lat="44.7211966" lon="8.7425656"><ele>167.0</ele><time>2026-04-17T16:08:41.712Z</time></trkpt><trkpt lat="44.7210474" lon="8.742721"><ele>167.66666666666666</ele><time>2026-04-17T16:08:42.712Z</time></trkpt><trkpt lat="44.7208956" lon="8.7428792"><ele>168.33333333333334</ele><time>2026-04-17T16:08:43.712Z</time></trkpt><trkpt lat="44.7207358" lon="8.7430435"><ele>169.0</ele><time>2026-04-17T16:08:44.712Z</time></trkpt><trkpt lat="44.7205784" lon="8.7432156"><ele>169.0</ele><time>2026-04-17T16:08:45.711Z</time></trkpt><trkpt lat="44.7204184" lon="8.7433892"><ele>169.0</ele><time>2026-04-17T16:08:46.712Z</time></trkpt><trkpt lat="44.7202624" lon="8.7435628"><ele>169.0</ele><time>2026-04-17T16:08:47.712Z</time></trkpt><trkpt lat="44.7200992" lon="8.7437353"><ele>168.66666666666669</ele><time>2026-04-17T16:08:48.711Z</time></trkpt><trkpt lat="44.7199372" lon="8.7439059"><ele>168.33333333333334</ele><time>2026-04-17T16:08:49.712Z</time></trkpt><trkpt lat="44.7197752" lon="8.7440762"><ele>168.0</ele><time>2026-04-17T16:08:50.712Z</time></trkpt><trkpt lat="44.7196133" lon="8.7442563"><ele>169.0</ele><time>2026-04-17T16:08:51.712Z</time></trkpt><trkpt lat="44.7194483" lon="8.7444424"><ele>170.0</ele><time>2026-04-17T16:08:52.712Z</time></trkpt><trkpt lat="44.7192789" lon="8.7446278"><ele>171.0</ele><time>2026-04-17T16:08:53.712Z</time></trkpt><trkpt lat="44.7191059" lon="8.7448077"><ele>171.0</ele><time>2026-04-17T16:08:54.712Z</time></trkpt><trkpt lat="44.7189382" lon="8.7449848"><ele>171.0</ele><time>2026-04-17T16:08:55.711Z</time></trkpt><trkpt lat="44.7187643" lon="8.7451616"><ele>171.0</ele><time>2026-04-17T16:08:56.712Z</time></trkpt><trkpt lat="44.718602" lon="8.7453398"><ele>170.33333333333334</ele><time>2026-04-17T16:08:57.712Z</time></trkpt><trkpt lat="44.7184431" lon="8.7455194"><ele>169.66666666666669</ele><time>2026-04-17T16:08:58.711Z</time></trkpt><trkpt lat="44.7182835" lon="8.745693"><ele>169.0</ele><time>2026-04-17T16:08:59.712Z</time></trkpt><trkpt lat="44.7181265" lon="8.7458719"><ele>168.33333333333334</ele><time>2026-04-17T16:09:00.712Z</time></trkpt><trkpt lat="44.7179641" lon="8.7460476"><ele>167.66666666666666</ele><time>2026-04-17T16:09:01.712Z</time></trkpt><trkpt lat="44.7177928" lon="8.7462251"><ele>167.0</ele><time>2026-04-17T16:09:02.711Z</time></trkpt><trkpt lat="44.7176299" lon="8.7464134"><ele>167.0</ele><time>2026-04-17T16:09:03.712Z</time></trkpt><trkpt lat="44.7174607" lon="8.7465936"><ele>167.0</ele><time>2026-04-17T16:09:04.712Z</time></trkpt><trkpt lat="44.7172942" lon="8.7467693"><ele>167.0</ele><time>2026-04-17T16:09:05.711Z</time></trkpt><trkpt lat="44.7171265" lon="8.7469512"><ele>166.0</ele><time>2026-04-17T16:09:06.712Z</time></trkpt><trkpt lat="44.7169597" lon="8.7471394"><ele>165.0</ele><time>2026-04-17T16:09:07.711Z</time></trkpt><trkpt lat="44.7167903" lon="8.7473179"><ele>164.0</ele><time>2026-04-17T16:09:08.711Z</time></trkpt><trkpt lat="44.7166145" lon="8.747495"><ele>164.0</ele><time>2026-04-17T16:09:09.712Z</time></trkpt><trkpt lat="44.7164478" lon="8.7476787"><ele>164.0</ele><time>2026-04-17T16:09:10.712Z</time></trkpt><trkpt lat="44.7162779" lon="8.747863"><ele>164.0</ele><time>2026-04-17T16:09:11.712Z</time></trkpt><trkpt lat="44.7161053" lon="8.7480449"><ele>165.0</ele><time>2026-04-17T16:09:12.711Z</time></trkpt><trkpt lat="44.7159377" lon="8.7482238"><ele>166.0</ele><time>2026-04-17T16:09:13.712Z</time></trkpt><trkpt lat="44.7157624" lon="8.7484023"><ele>167.0</ele><time>2026-04-17T16:09:14.711Z</time></trkpt><trkpt lat="44.7155872" lon="8.7485647"><ele>167.66666666666666</ele><time>2026-04-17T16:09:15.712Z</time></trkpt><trkpt lat="44.715407" lon="8.7487133"><ele>168.33333333333334</ele><time>2026-04-17T16:09:16.711Z</time></trkpt><trkpt lat="44.7152249" lon="8.7488467"><ele>169.0</ele><time>2026-04-17T16:09:17.711Z</time></trkpt><trkpt lat="44.7150368" lon="8.7489717"><ele>169.0</ele><time>2026-04-17T16:09:18.712Z</time></trkpt><trkpt lat="44.7148464" lon="8.7490889"><ele>169.0</ele><time>2026-04-17T16:09:19.712Z</time></trkpt><trkpt lat="44.7146503" lon="8.7492022"><ele>169.0</ele><time>2026-04-17T16:09:20.712Z</time></trkpt><trkpt lat="44.7144521" lon="8.7493007"><ele>169.66666666666669</ele><time>2026-04-17T16:09:21.712Z</time></trkpt><trkpt lat="44.7142508" lon="8.7493969"><ele>170.33333333333334</ele><time>2026-04-17T16:09:22.711Z</time></trkpt><trkpt lat="44.7140462" lon="8.7494941"><ele>171.0</ele><time>2026-04-17T16:09:23.712Z</time></trkpt><trkpt lat="44.7138482" lon="8.7495909"><ele>171.0</ele><time>2026-04-17T16:09:24.712Z</time></trkpt><trkpt lat="44.7136517" lon="8.7496925"><ele>171.0</ele><time>2026-04-17T16:09:25.712Z</time></trkpt><trkpt lat="44.7134539" lon="8.7497991"><ele>171.0</ele><time>2026-04-17T16:09:26.711Z</time></trkpt><trkpt lat="44.7132586" lon="8.7499107"><ele>171.0</ele><time>2026-04-17T16:09:27.711Z</time></trkpt><trkpt lat="44.7130648" lon="8.7500337"><ele>171.0</ele><time>2026-04-17T16:09:28.712Z</time></trkpt><trkpt lat="44.7128746" lon="8.7501492"><ele>171.0</ele><time>2026-04-17T16:09:29.712Z</time></trkpt><trkpt lat="44.7126788" lon="8.7502673"><ele>173.33333333333334</ele><time>2026-04-17T16:09:30.711Z</time></trkpt><trkpt lat="44.7124854" lon="8.7503826"><ele>175.66666666666669</ele><time>2026-04-17T16:09:31.712Z</time></trkpt><trkpt lat="44.7122904" lon="8.7504978"><ele>178.0</ele><time>2026-04-17T16:09:32.712Z</time></trkpt><trkpt lat="44.7121027" lon="8.7506089"><ele>178.0</ele><time>2026-04-17T16:09:33.712Z</time></trkpt><trkpt lat="44.7119226" lon="8.7507007"><ele>178.0</ele><time>2026-04-17T16:09:34.712Z</time></trkpt><trkpt lat="44.7117329" lon="8.7507518"><ele>178.0</ele><time>2026-04-17T16:09:35.712Z</time></trkpt><trkpt lat="44.7115531" lon="8.7507883"><ele>178.0</ele><time>2026-04-17T16:09:36.712Z</time></trkpt><trkpt lat="44.7113794" lon="8.750822"><ele>178.0</ele><time>2026-04-17T16:09:37.712Z</time></trkpt><trkpt lat="44.7112057" lon="8.7508712"><ele>178.0</ele><time>2026-04-17T16:09:38.711Z</time></trkpt><trkpt lat="44.7110461" lon="8.7509352"><ele>177.0</ele><time>2026-04-17T16:09:39.711Z</time></trkpt><trkpt lat="44.7108859" lon="8.751029"><ele>176.0</ele><time>2026-04-17T16:09:40.712Z</time></trkpt><trkpt lat="44.7107228" lon="8.7511665"><ele>175.0</ele><time>2026-04-17T16:09:41.712Z</time></trkpt><trkpt lat="44.7105553" lon="8.7513122"><ele>176.33333333333334</ele><time>2026-04-17T16:09:42.712Z</time></trkpt><trkpt lat="44.710375" lon="8.7514417"><ele>177.66666666666666</ele><time>2026-04-17T16:09:43.712Z</time></trkpt><trkpt lat="44.7101939" lon="8.7515657"><ele>179.0</ele><time>2026-04-17T16:09:44.711Z</time></trkpt><trkpt lat="44.7100033" lon="8.7516817"><ele>179.0</ele><time>2026-04-17T16:09:45.711Z</time></trkpt><trkpt lat="44.7098067" lon="8.7517872"><ele>179.0</ele><time>2026-04-17T16:09:46.712Z</time></trkpt><trkpt lat="44.709615" lon="8.7518817"><ele>179.0</ele><time>2026-04-17T16:09:47.712Z</time></trkpt><trkpt lat="44.7094282" lon="8.751981"><ele>181.33333333333331</ele><time>2026-04-17T16:09:48.712Z</time></trkpt><trkpt lat="44.709251" lon="8.7520845"><ele>183.66666666666666</ele><time>2026-04-17T16:09:49.712Z</time></trkpt><trkpt lat="44.7090768" lon="8.7521762"><ele>186.0</ele><time>2026-04-17T16:09:50.712Z</time></trkpt><trkpt lat="44.7089091" lon="8.7522749"><ele>186.0</ele><time>2026-04-17T16:09:51.712Z</time></trkpt><trkpt lat="44.7087495" lon="8.7523746"><ele>186.0</ele><time>2026-04-17T16:09:52.712Z</time></trkpt><trkpt lat="44.7085976" lon="8.7524738"><ele>186.0</ele><time>2026-04-17T16:09:53.712Z</time></trkpt><trkpt lat="44.708451" lon="8.7525689"><ele>187.33333333333334</ele><time>2026-04-17T16:09:54.712Z</time></trkpt><trkpt lat="44.7083032" lon="8.7526694"><ele>188.66666666666669</ele><time>2026-04-17T16:09:55.712Z</time></trkpt><trkpt lat="44.7081505" lon="8.7527655"><ele>190.0</ele><time>2026-04-17T16:09:56.711Z</time></trkpt><trkpt lat="44.7080021" lon="8.7528623"><ele>190.0</ele><time>2026-04-17T16:09:57.712Z</time></trkpt><trkpt lat="44.7078581" lon="8.7529512"><ele>190.0</ele><time>2026-04-17T16:09:58.712Z</time></trkpt><trkpt lat="44.7077185" lon="8.7530333"><ele>190.0</ele><time>2026-04-17T16:09:59.712Z</time></trkpt><trkpt lat="44.7075873" lon="8.7531255"><ele>187.25</ele><time>2026-04-17T16:10:00.711Z</time></trkpt><trkpt lat="44.7074566" lon="8.7532082"><ele>184.5</ele><time>2026-04-17T16:10:01.712Z</time></trkpt><trkpt lat="44.7073225" lon="8.7532767"><ele>181.75</ele><time>2026-04-17T16:10:02.712Z</time></trkpt><trkpt lat="44.7071918" lon="8.7533411"><ele>179.0</ele><time>2026-04-17T16:10:03.712Z</time></trkpt><trkpt lat="44.7070617" lon="8.7534006"><ele>179.0</ele><time>2026-04-17T16:10:04.712Z</time></trkpt><trkpt lat="44.7069281" lon="8.7534556"><ele>179.0</ele><time>2026-04-17T16:10:05.712Z</time></trkpt><trkpt lat="44.7068035" lon="8.7535096"><ele>179.0</ele><time>2026-04-17T16:10:06.712Z</time></trkpt><trkpt lat="44.7066718" lon="8.7535671"><ele>179.0</ele><time>2026-04-17T16:10:07.712Z</time></trkpt><trkpt lat="44.7065359" lon="8.7536211"><ele>178.5</ele><time>2026-04-17T16:10:08.712Z</time></trkpt><trkpt lat="44.7064007" lon="8.753683"><ele>178.0</ele><time>2026-04-17T16:10:09.712Z</time></trkpt><trkpt lat="44.7062635" lon="8.7537414"><ele>177.5</ele><time>2026-04-17T16:10:10.711Z</time></trkpt><trkpt lat="44.706124" lon="8.7538034"><ele>177.0</ele><time>2026-04-17T16:10:11.712Z</time></trkpt><trkpt lat="44.7059982" lon="8.7538649"><ele>176.5</ele><time>2026-04-17T16:10:12.712Z</time></trkpt><trkpt lat="44.7058714" lon="8.7539262"><ele>176.0</ele><time>2026-04-17T16:10:13.712Z</time></trkpt><trkpt lat="44.7057454" lon="8.7539874"><ele>175.5</ele><time>2026-04-17T16:10:14.712Z</time></trkpt><trkpt lat="44.7056155" lon="8.7540456"><ele>175.0</ele><time>2026-04-17T16:10:15.712Z</time></trkpt><trkpt lat="44.7054953" lon="8.7541048"><ele>175.0</ele><time>2026-04-17T16:10:16.711Z</time></trkpt><trkpt lat="44.7053626" lon="8.7541521"><ele>175.0</ele><time>2026-04-17T16:10:17.712Z</time></trkpt><trkpt lat="44.7052334" lon="8.7542039"><ele>175.0</ele><time>2026-04-17T16:10:18.712Z</time></trkpt><trkpt lat="44.7050937" lon="8.7542571"><ele>175.0</ele><time>2026-04-17T16:10:19.712Z</time></trkpt><trkpt lat="44.7049534" lon="8.7543128"><ele>175.0</ele><time>2026-04-17T16:10:20.711Z</time></trkpt><trkpt lat="44.704806" lon="8.7543692"><ele>175.0</ele><time>2026-04-17T16:10:21.712Z</time></trkpt><trkpt lat="44.7046633" lon="8.7544295"><ele>175.0</ele><time>2026-04-17T16:10:22.712Z</time></trkpt><trkpt lat="44.7045143" lon="8.7544812"><ele>175.5</ele><time>2026-04-17T16:10:23.711Z</time></trkpt><trkpt lat="44.7043749" lon="8.754525"><ele>176.0</ele><time>2026-04-17T16:10:24.712Z</time></trkpt><trkpt lat="44.7042543" lon="8.7545694"><ele>176.5</ele><time>2026-04-17T16:10:25.712Z</time></trkpt><trkpt lat="44.704147" lon="8.7546136"><ele>177.0</ele><time>2026-04-17T16:10:26.712Z</time></trkpt><trkpt lat="44.7040551" lon="8.7546479"><ele>177.0</ele><time>2026-04-17T16:10:27.712Z</time></trkpt><trkpt lat="44.7039829" lon="8.7546771"><ele>177.0</ele><time>2026-04-17T16:10:28.712Z</time></trkpt><trkpt lat="44.7038982" lon="8.7546886"><ele>177.0</ele><time>2026-04-17T16:10:30.712Z</time></trkpt></trkseg></trk></gpx>